Time,TemperatureF,DewpointF,PressureIn,WindDirection,WindDirectionDegrees,WindSpeedMPH,WindSpeedGustMPH,Humidity,HourlyPrecipIn,Conditions,Clouds,dailyrainin,SolarRadiationWatts/m^2,SoftwareType,DateUTC
2013-05-26 00:00:00,55.4,39.5,30.24,SSW,200,1.0,11.0,55,0.00,,SKC,0.00,0.00,VWS V14.01,2013-05-26 04:00:00,
2013-05-26 00:01:00,55.4,39.5,30.24,SSW,200,2.0,11.0,55,0.00,,SKC,0.00,0.00,VWS V14.01,2013-05-26 04:01:00,
2013-05-26 00:06:00,55.3,39.9,30.24,NW,309,1.0,3.0,56,0.00,,SKC,0.00,0.00,VWS V14.01,2013-05-26 04:06:00,
2013-05-26 00:07:00,55.3,39.9,30.24,NW,309,0.0,3.0,56,0.00,,SKC,0.00,0.00,VWS V14.01,2013-05-26 04:07:00,
2013-05-26 00:11:00,55.2,39.8,30.24,NW,306,0.0,3.0,56,0.00,,SKC,0.00,0.00,VWS V14.01,2013-05-26 04:11:00,
2013-05-26 00:12:00,55.1,40.2,30.24,NW,304,1.0,3.0,57,0.00,,SKC,0.00,0.00,VWS V14.01,2013-05-26 04:12:00,
2013-05-26 00:13:00,55.0,40.1,30.24,NW,304,0.0,3.0,57,0.00,,SKC,0.00,0.00,VWS V14.01,2013-05-26 04:13:00,
2013-05-26 00:16:00,54.6,40.1,30.24,NW,304,1.0,3.0,58,0.00,,SKC,0.00,0.00,VWS V14.01,2013-05-26 04:16:00,
2013-05-26 00:17:00,54.6,40.1,30.24,NW,304,1.0,3.0,58,0.00,,SKC,0.00,0.00,VWS V14.01,2013-05-26 04:17:00,
2013-05-26 00:18:00,54.5,40.0,30.24,NW,304,1.0,3.0,58,0.00,,SKC,0.00,0.00,VWS V14.01,2013-05-26 04:18:00,
2013-05-26 00:21:00,54.1,40.1,30.24,NW,304,1.0,3.0,59,0.00,,SKC,0.00,0.00,VWS V14.01,2013-05-26 04:21:00,
2013-05-26 00:22:00,54.0,40.0,30.24,NW,304,1.0,3.0,59,0.00,,SKC,0.00,0.00,VWS V14.01,2013-05-26 04:22:00,
2013-05-26 00:23:00,53.9,40.3,30.24,NW,304,0.0,3.0,60,0.00,,SKC,0.00,0.00,VWS V14.01,2013-05-26 04:23:00,
2013-05-26 00:27:00,53.6,40.5,30.24,NW,304,0.0,3.0,61,0.00,,SKC,0.00,0.00,VWS V14.01,2013-05-26 04:27:00,
2013-05-26 00:28:00,53.5,40.4,30.24,NW,304,1.0,3.0,61,0.00,,SKC,0.00,0.00,VWS V14.01,2013-05-26 04:28:00,
2013-05-26 00:32:00,53.1,40.4,30.25,NW,304,2.0,2.0,62,0.00,,SKC,0.00,0.00,VWS V14.01,2013-05-26 04:32:00,
2013-05-26 00:33:00,53.1,40.4,30.25,NW,304,2.0,3.0,62,0.00,,SKC,0.00,0.00,VWS V14.01,2013-05-26 04:33:00,
2013-05-26 00:34:00,53.1,40.8,30.25,NW,304,2.0,3.0,63,0.00,,SKC,0.00,0.00,VWS V14.01,2013-05-26 04:34:00,
2013-05-26 00:37:00,52.9,40.7,30.25,NW,304,0.0,3.0,63,0.00,,SKC,0.00,0.00,VWS V14.01,2013-05-26 04:37:00,
2013-05-26 00:38:00,52.9,41.1,30.25,NW,304,0.0,3.0,64,0.00,,SKC,0.00,0.00,VWS V14.01,2013-05-26 04:38:00,
2013-05-26 00:39:00,52.8,41.0,30.25,NW,304,0.0,3.0,64,0.00,,SKC,0.00,0.00,VWS V14.01,2013-05-26 04:39:00,
2013-05-26 00:42:00,52.6,40.8,30.25,NW,306,1.0,3.0,64,0.00,,SKC,0.00,0.00,VWS V14.01,2013-05-26 04:42:00,
2013-05-26 00:43:00,52.6,41.2,30.25,NW,306,4.0,4.0,65,0.00,,SKC,0.00,0.00,VWS V14.01,2013-05-26 04:43:00,
2013-05-26 00:45:00,52.4,40.6,30.25,NW,306,2.0,4.0,64,0.00,,SKC,0.00,0.00,VWS V14.01,2013-05-26 04:45:00,
2013-05-26 00:47:00,52.3,40.9,30.25,NW,306,3.0,4.0,65,0.00,,SKC,0.00,0.00,VWS V14.01,2013-05-26 04:47:00,
2013-05-26 00:48:00,52.3,40.9,30.25,NW,306,2.0,4.0,65,0.00,,SKC,0.00,0.00,VWS V14.01,2013-05-26 04:48:00,
2013-05-26 00:49:00,52.2,40.8,30.25,NW,306,2.0,4.0,65,0.00,,SKC,0.00,0.00,VWS V14.01,2013-05-26 04:49:00,
2013-05-26 00:50:00,52.1,40.7,30.25,NW,306,1.0,4.0,65,0.00,,SKC,0.00,0.00,VWS V14.01,2013-05-26 04:50:00,
2013-05-26 00:53:00,51.9,40.9,30.24,NW,306,1.0,4.0,66,0.00,,SKC,0.00,0.00,VWS V14.01,2013-05-26 04:53:00,
2013-05-26 00:55:00,51.8,41.2,30.24,NW,309,3.0,4.0,67,0.00,,SKC,0.00,0.00,VWS V14.01,2013-05-26 04:55:00,
2013-05-26 00:58:00,51.6,41.4,30.24,NW,309,1.0,4.0,68,0.00,,SKC,0.00,0.00,VWS V14.01,2013-05-26 04:58:00,
2013-05-26 00:59:00,51.5,41.3,30.24,NW,309,1.0,4.0,68,0.00,,SKC,0.00,0.00,VWS V14.01,2013-05-26 04:59:00,
2013-05-26 01:00:00,51.5,41.3,30.24,NW,309,0.0,4.0,68,0.00,,SKC,0.00,0.00,VWS V14.01,2013-05-26 05:00:00,
2013-05-26 01:01:00,51.4,41.2,30.24,NW,309,0.0,1.0,68,0.00,,SKC,0.00,0.00,VWS V14.01,2013-05-26 05:01:00,
2013-05-26 01:03:00,51.4,41.6,30.24,NW,309,0.0,1.0,69,0.00,,SKC,0.00,0.00,VWS V14.01,2013-05-26 05:03:00,
2013-05-26 01:04:00,51.3,41.1,30.24,NW,309,0.0,1.0,68,0.00,,SKC,0.00,0.00,VWS V14.01,2013-05-26 05:04:00,
2013-05-26 01:05:00,51.3,41.5,30.24,NW,309,0.0,1.0,69,0.00,,SKC,0.00,0.00,VWS V14.01,2013-05-26 05:05:00,
2013-05-26 01:06:00,51.2,41.8,30.24,NW,309,2.0,2.0,70,0.00,,SKC,0.00,0.00,VWS V14.01,2013-05-26 05:06:00,
2013-05-26 01:09:00,51.0,41.6,30.25,NW,309,0.0,3.0,70,0.00,,SKC,0.00,0.00,VWS V14.01,2013-05-26 05:09:00,
2013-05-26 01:10:00,51.0,41.9,30.25,NW,309,0.0,3.0,71,0.00,,SKC,0.00,0.00,VWS V14.01,2013-05-26 05:10:00,
2013-05-26 01:11:00,50.9,41.8,30.25,NW,309,0.0,3.0,71,0.00,,SKC,0.00,0.00,VWS V14.01,2013-05-26 05:11:00,
2013-05-26 01:14:00,50.9,41.8,30.25,NW,309,1.0,4.0,71,0.00,,SKC,0.00,0.00,VWS V14.01,2013-05-26 05:14:00,
2013-05-26 01:15:00,50.9,41.8,30.25,NW,311,0.0,4.0,71,0.00,,SKC,0.00,0.00,VWS V14.01,2013-05-26 05:15:00,
2013-05-26 01:16:00,50.9,41.8,30.25,NW,311,0.0,4.0,71,0.00,,SKC,0.00,0.00,VWS V14.01,2013-05-26 05:16:00,
2013-05-26 01:17:00,50.9,41.8,30.25,NW,311,1.0,4.0,71,0.00,,SKC,0.00,0.00,VWS V14.01,2013-05-26 05:17:00,
2013-05-26 01:19:00,50.8,41.0,30.25,NW,311,0.0,4.0,69,0.00,,SKC,0.00,0.00,VWS V14.01,2013-05-26 05:19:00,
2013-05-26 01:20:00,50.9,41.1,30.25,NW,311,0.0,4.0,69,0.00,,SKC,0.00,0.00,VWS V14.01,2013-05-26 05:20:00,
2013-05-26 01:21:00,50.9,41.5,30.25,NW,311,0.0,4.0,70,0.00,,SKC,0.00,0.00,VWS V14.01,2013-05-26 05:21:00,
2013-05-26 01:22:00,50.9,42.2,30.25,NW,311,0.0,4.0,72,0.00,,SKC,0.00,0.00,VWS V14.01,2013-05-26 05:22:00,
2013-05-26 01:24:00,50.8,42.5,30.24,NW,310,0.0,4.0,73,0.00,,SKC,0.00,0.00,VWS V14.01,2013-05-26 05:24:00,
2013-05-26 01:25:00,50.7,42.4,30.24,NW,310,0.0,4.0,73,0.00,,SKC,0.00,0.00,VWS V14.01,2013-05-26 05:25:00,
2013-05-26 01:26:00,50.7,42.4,30.24,NW,310,0.0,4.0,73,0.00,,SKC,0.00,0.00,VWS V14.01,2013-05-26 05:26:00,
2013-05-26 01:27:00,50.7,41.7,30.24,NW,310,0.0,4.0,71,0.00,,SKC,0.00,0.00,VWS V14.01,2013-05-26 05:27:00,
2013-05-26 01:30:00,50.8,41.0,30.25,NW,304,0.0,4.0,69,0.00,,SKC,0.00,0.00,VWS V14.01,2013-05-26 05:30:00,
2013-05-26 01:31:00,50.9,41.1,30.25,WNW,301,2.0,4.0,69,0.00,,SKC,0.00,0.00,VWS V14.01,2013-05-26 05:31:00,
2013-05-26 01:32:00,51.1,41.3,30.25,SE,135,2.0,4.0,69,0.00,,SKC,0.00,0.00,VWS V14.01,2013-05-26 05:32:00,
2013-05-26 01:35:00,51.6,41.0,30.25,SE,135,1.0,4.0,67,0.00,,SKC,0.00,0.00,VWS V14.01,2013-05-26 05:35:00,
2013-05-26 01:36:00,51.8,41.6,30.25,SSW,207,4.0,4.0,68,0.00,,SKC,0.00,0.00,VWS V14.01,2013-05-26 05:36:00,
2013-05-26 01:37:00,52.2,41.6,30.25,SSW,209,1.0,4.0,67,0.00,,SKC,0.00,0.00,VWS V14.01,2013-05-26 05:37:00,
2013-05-26 01:40:00,52.9,41.1,30.25,SSW,211,2.0,4.0,64,0.00,,SKC,0.00,0.00,VWS V14.01,2013-05-26 05:40:00,
2013-05-26 01:41:00,53.1,40.8,30.25,SSW,211,4.0,4.0,63,0.00,,SKC,0.00,0.00,VWS V14.01,2013-05-26 05:41:00,
2013-05-26 01:43:00,53.6,40.5,30.25,SSW,212,4.0,6.0,61,0.00,,SKC,0.00,0.00,VWS V14.01,2013-05-26 05:43:00,
2013-05-26 01:45:00,54.0,40.9,30.25,SSW,211,2.0,6.0,61,0.00,,SKC,0.00,0.00,VWS V14.01,2013-05-26 05:45:00,
2013-05-26 01:46:00,54.1,41.0,30.25,SSW,211,3.0,6.0,61,0.00,,SKC,0.00,0.00,VWS V14.01,2013-05-26 05:46:00,
2013-05-26 01:47:00,54.1,40.5,30.25,SSW,211,4.0,6.0,60,0.00,,SKC,0.00,0.00,VWS V14.01,2013-05-26 05:47:00,
2013-05-26 01:48:00,54.1,40.5,30.25,SW,221,3.0,6.0,60,0.00,,SKC,0.00,0.00,VWS V14.01,2013-05-26 05:48:00,
2013-05-26 01:50:00,54.0,41.7,30.24,SSW,213,5.0,6.0,63,0.00,,SKC,0.00,0.00,VWS V14.01,2013-05-26 05:50:00,
2013-05-26 01:51:00,53.8,41.5,30.24,SSW,213,1.0,6.0,63,0.00,,SKC,0.00,0.00,VWS V14.01,2013-05-26 05:51:00,
2013-05-26 01:52:00,53.7,41.4,30.24,SSW,213,1.0,6.0,63,0.00,,SKC,0.00,0.00,VWS V14.01,2013-05-26 05:52:00,
2013-05-26 01:53:00,53.4,41.1,30.24,SSW,213,2.0,6.0,63,0.00,,SKC,0.00,0.00,VWS V14.01,2013-05-26 05:53:00,
2013-05-26 01:55:00,53.3,41.0,30.24,SSW,213,0.0,6.0,63,0.00,,SKC,0.00,0.00,VWS V14.01,2013-05-26 05:55:00,
2013-05-26 01:56:00,53.3,41.5,30.24,SSW,213,0.0,6.0,64,0.00,,SKC,0.00,0.00,VWS V14.01,2013-05-26 05:56:00,
2013-05-26 01:57:00,53.3,41.5,30.24,SSW,213,0.0,6.0,64,0.00,,SKC,0.00,0.00,VWS V14.01,2013-05-26 05:57:00,
2013-05-26 01:58:00,53.2,41.3,30.24,SSW,213,0.0,6.0,64,0.00,,SKC,0.00,0.00,VWS V14.01,2013-05-26 05:58:00,
2013-05-26 02:00:00,53.2,41.8,30.24,SSW,213,0.0,6.0,65,0.00,,SKC,0.00,0.00,VWS V14.01,2013-05-26 06:00:00,
2013-05-26 02:01:00,53.2,41.8,30.24,SSW,213,0.0,0.0,65,0.00,,SKC,0.00,0.00,VWS V14.01,2013-05-26 06:01:00,
2013-05-26 02:02:00,53.1,41.7,30.24,SSW,213,0.0,0.0,65,0.00,,SKC,0.00,0.00,VWS V14.01,2013-05-26 06:02:00,
2013-05-26 02:04:00,53.1,41.3,30.24,SSW,213,0.0,1.0,64,0.00,,SKC,0.00,0.00,VWS V14.01,2013-05-26 06:04:00,
2013-05-26 02:05:00,53.0,40.8,30.24,SSW,213,0.0,1.0,63,0.00,,SKC,0.00,0.00,VWS V14.01,2013-05-26 06:05:00,
2013-05-26 02:07:00,53.0,41.2,30.24,SSW,213,1.0,1.0,64,0.00,,SKC,0.00,0.00,VWS V14.01,2013-05-26 06:07:00,
2013-05-26 02:09:00,53.0,41.2,30.23,SSW,213,2.0,3.0,64,0.00,,SKC,0.00,0.00,VWS V14.01,2013-05-26 06:09:00,
2013-05-26 02:10:00,52.9,41.1,30.23,SSW,213,1.0,3.0,64,0.00,,SKC,0.00,0.00,VWS V14.01,2013-05-26 06:10:00,
2013-05-26 02:12:00,52.9,40.7,30.23,SSW,213,1.0,3.0,63,0.00,,SKC,0.00,0.00,VWS V14.01,2013-05-26 06:12:00,
2013-05-26 02:14:00,52.9,40.7,30.23,SSW,213,0.0,3.0,63,0.00,,SKC,0.00,0.00,VWS V14.01,2013-05-26 06:14:00,
2013-05-26 02:15:00,52.9,40.7,30.23,SSW,213,1.0,3.0,63,0.00,,SKC,0.00,0.00,VWS V14.01,2013-05-26 06:15:00,
2013-05-26 02:17:00,52.9,41.1,30.23,SSW,213,2.0,3.0,64,0.00,,SKC,0.00,0.00,VWS V14.01,2013-05-26 06:17:00,
2013-05-26 02:18:00,52.8,41.4,30.23,SSW,213,2.0,3.0,65,0.00,,SKC,0.00,0.00,VWS V14.01,2013-05-26 06:18:00,
2013-05-26 02:20:00,52.8,41.4,30.23,NW,321,1.0,3.0,65,0.00,,SKC,0.00,0.00,VWS V14.01,2013-05-26 06:20:00,
2013-05-26 02:21:00,52.7,41.7,30.23,NW,316,3.0,3.0,66,0.00,,SKC,0.00,0.00,VWS V14.01,2013-05-26 06:21:00,
2013-05-26 02:22:00,52.7,42.1,30.23,NW,315,2.0,4.0,67,0.00,,SKC,0.00,0.00,VWS V14.01,2013-05-26 06:22:00,
2013-05-26 02:23:00,52.6,42.0,30.23,NW,315,1.0,4.0,67,0.00,,SKC,0.00,0.00,VWS V14.01,2013-05-26 06:23:00,
2013-05-26 02:25:00,52.4,42.2,30.23,NW,315,2.0,4.0,68,0.00,,SKC,0.00,0.00,VWS V14.01,2013-05-26 06:25:00,
2013-05-26 02:26:00,52.2,42.0,30.23,NW,315,2.0,4.0,68,0.00,,SKC,0.00,0.00,VWS V14.01,2013-05-26 06:26:00,
2013-05-26 02:27:00,52.1,42.2,30.23,NW,315,1.0,4.0,69,0.00,,SKC,0.00,0.00,VWS V14.01,2013-05-26 06:27:00,
2013-05-26 02:28:00,52.1,42.2,30.23,NW,315,1.0,4.0,69,0.00,,SKC,0.00,0.00,VWS V14.01,2013-05-26 06:28:00,
2013-05-26 02:30:00,51.9,42.1,30.23,NW,315,0.0,4.0,69,0.00,,SKC,0.00,0.00,VWS V14.01,2013-05-26 06:30:00,
2013-05-26 02:31:00,51.6,42.2,30.23,NW,315,2.0,2.0,70,0.00,,SKC,0.00,0.00,VWS V14.01,2013-05-26 06:31:00,
2013-05-26 02:32:00,51.5,42.0,30.22,NW,315,0.0,3.0,70,0.00,,SKC,0.00,0.00,VWS V14.01,2013-05-26 06:32:00,
2013-05-26 02:34:00,51.4,42.3,30.22,NW,315,0.0,3.0,71,0.00,,SKC,0.00,0.00,VWS V14.01,2013-05-26 06:34:00,
2013-05-26 02:35:00,51.3,42.2,30.22,NW,315,0.0,3.0,71,0.00,,SKC,0.00,0.00,VWS V14.01,2013-05-26 06:35:00,
2013-05-26 02:36:00,51.2,42.1,30.22,NW,315,2.0,3.0,71,0.00,,SKC,0.00,0.00,VWS V14.01,2013-05-26 06:36:00,
2013-05-26 02:37:00,51.1,42.4,30.22,NW,315,2.0,3.0,72,0.00,,SKC,0.00,0.00,VWS V14.01,2013-05-26 06:37:00,
2013-05-26 02:38:00,51.1,42.4,30.22,NW,313,4.0,4.0,72,0.00,,SKC,0.00,0.00,VWS V14.01,2013-05-26 06:38:00,
2013-05-26 02:39:00,50.9,42.2,30.22,WNW,297,4.0,5.0,72,0.00,,SKC,0.00,0.00,VWS V14.01,2013-05-26 06:39:00,
2013-05-26 02:40:00,50.8,42.1,30.22,WNW,303,3.0,5.0,72,0.00,,SKC,0.00,0.00,VWS V14.01,2013-05-26 06:40:00,
2013-05-26 02:41:00,50.9,41.5,30.22,SW,223,2.0,6.0,70,0.00,,SKC,0.00,0.00,VWS V14.01,2013-05-26 06:41:00,
2013-05-26 02:42:00,51.1,42.0,30.22,SSW,207,3.0,6.0,71,0.00,,SKC,0.00,0.00,VWS V14.01,2013-05-26 06:42:00,
2013-05-26 02:43:00,51.1,42.0,30.23,WNW,288,2.0,6.0,71,0.00,,SKC,0.00,0.00,VWS V14.01,2013-05-26 06:43:00,
2013-05-26 02:44:00,51.2,41.8,30.23,WNW,288,1.0,6.0,70,0.00,,SKC,0.00,0.00,VWS V14.01,2013-05-26 06:44:00,
2013-05-26 02:45:00,51.2,41.8,30.23,WNW,288,0.0,6.0,70,0.00,,SKC,0.00,0.00,VWS V14.01,2013-05-26 06:45:00,
2013-05-26 02:46:00,51.3,41.9,30.22,South,185,5.0,6.0,70,0.00,,SKC,0.00,0.00,VWS V14.01,2013-05-26 06:46:00,
2013-05-26 02:48:00,51.5,41.3,30.22,SE,142,3.0,6.0,68,0.00,,SKC,0.00,0.00,VWS V14.01,2013-05-26 06:48:00,
2013-05-26 02:49:00,51.6,41.8,30.23,SE,144,5.0,6.0,69,0.00,,SKC,0.00,0.00,VWS V14.01,2013-05-26 06:49:00,
2013-05-26 02:50:00,51.6,41.8,30.23,SSE,150,3.0,6.0,69,0.00,,SKC,0.00,0.00,VWS V14.01,2013-05-26 06:50:00,
2013-05-26 02:52:00,51.6,41.8,30.23,SE,140,7.0,7.0,69,0.00,,SKC,0.00,0.00,VWS V14.01,2013-05-26 06:52:00,
2013-05-26 02:53:00,51.7,41.5,30.23,SE,139,2.0,7.0,68,0.00,,SKC,0.00,0.00,VWS V14.01,2013-05-26 06:53:00,
2013-05-26 02:54:00,51.9,41.3,30.23,SE,140,4.0,7.0,67,0.00,,SKC,0.00,0.00,VWS V14.01,2013-05-26 06:54:00,
2013-05-26 02:55:00,51.9,41.3,30.23,SE,140,3.0,7.0,67,0.00,,SKC,0.00,0.00,VWS V14.01,2013-05-26 06:55:00,
2013-05-26 02:57:00,52.0,41.4,30.23,SSE,165,3.0,7.0,67,0.00,,SKC,0.00,0.00,VWS V14.01,2013-05-26 06:57:00,
2013-05-26 02:58:00,51.9,41.7,30.23,SE,141,6.0,7.0,68,0.00,,SKC,0.00,0.00,VWS V14.01,2013-05-26 06:58:00,
2013-05-26 02:59:00,51.9,41.7,30.23,SSE,147,2.0,7.0,68,0.00,,SKC,0.00,0.00,VWS V14.01,2013-05-26 06:59:00,
2013-05-26 03:00:00,52.0,41.4,30.23,SSE,148,2.0,7.0,67,0.00,,SKC,0.00,0.00,VWS V14.01,2013-05-26 07:00:00,
2013-05-26 03:02:00,52.2,41.2,30.22,SE,140,2.0,3.0,66,0.00,,SKC,0.00,0.00,VWS V14.01,2013-05-26 07:02:00,
2013-05-26 03:03:00,52.3,41.3,30.22,South,182,1.0,3.0,66,0.00,,SKC,0.00,0.00,VWS V14.01,2013-05-26 07:03:00,
2013-05-26 03:04:00,52.3,41.7,30.22,SW,215,2.0,4.0,67,0.00,,SKC,0.00,0.00,VWS V14.01,2013-05-26 07:04:00,
2013-05-26 03:05:00,52.4,41.0,30.22,SW,215,2.0,4.0,65,0.00,,SKC,0.00,0.00,VWS V14.01,2013-05-26 07:05:00,
2013-05-26 03:07:00,52.9,41.1,30.22,SSW,209,5.0,5.0,64,0.00,,SKC,0.00,0.00,VWS V14.01,2013-05-26 07:07:00,
2013-05-26 03:08:00,53.2,41.0,30.22,SSW,209,1.0,5.0,63,0.00,,SKC,0.00,0.00,VWS V14.01,2013-05-26 07:08:00,
2013-05-26 03:09:00,53.3,41.0,30.22,SSW,209,1.0,5.0,63,0.00,,SKC,0.00,0.00,VWS V14.01,2013-05-26 07:09:00,
2013-05-26 03:10:00,53.4,41.1,30.22,SSW,209,3.0,5.0,63,0.00,,SKC,0.00,0.00,VWS V14.01,2013-05-26 07:10:00,
2013-05-26 03:11:00,53.4,41.1,30.22,SSW,209,3.0,5.0,63,0.00,,SKC,0.00,0.00,VWS V14.01,2013-05-26 07:11:00,
2013-05-26 03:12:00,53.5,41.2,30.22,SSW,209,4.0,5.0,63,0.00,,SKC,0.00,0.00,VWS V14.01,2013-05-26 07:12:00,
2013-05-26 03:13:00,53.6,41.3,30.22,SSW,209,4.0,5.0,63,0.00,,SKC,0.00,0.00,VWS V14.01,2013-05-26 07:13:00,
2013-05-26 03:14:00,53.7,41.0,30.22,SSW,209,4.0,5.0,62,0.00,,SKC,0.00,0.00,VWS V14.01,2013-05-26 07:14:00,
2013-05-26 03:15:00,53.9,40.8,30.22,SSW,209,1.0,5.0,61,0.00,,SKC,0.00,0.00,VWS V14.01,2013-05-26 07:15:00,
2013-05-26 03:16:00,53.9,41.2,30.22,SSW,209,0.0,5.0,62,0.00,,SKC,0.00,0.00,VWS V14.01,2013-05-26 07:16:00,
2013-05-26 03:18:00,53.9,41.2,30.22,SSW,209,0.0,5.0,62,0.00,,SKC,0.00,0.00,VWS V14.01,2013-05-26 07:18:00,
2013-05-26 03:19:00,53.8,41.1,30.22,SSW,209,2.0,5.0,62,0.00,,SKC,0.00,0.00,VWS V14.01,2013-05-26 07:19:00,
2013-05-26 03:21:00,53.6,41.3,30.22,SSW,209,3.0,5.0,63,0.00,,SKC,0.00,0.00,VWS V14.01,2013-05-26 07:21:00,
2013-05-26 03:22:00,53.4,41.1,30.22,SSW,209,2.0,5.0,63,0.00,,SKC,0.00,0.00,VWS V14.01,2013-05-26 07:22:00,
2013-05-26 03:23:00,53.3,41.0,30.22,SSW,209,0.0,5.0,63,0.00,,SKC,0.00,0.00,VWS V14.01,2013-05-26 07:23:00,
2013-05-26 03:24:00,53.2,41.3,30.22,SSW,209,0.0,5.0,64,0.00,,SKC,0.00,0.00,VWS V14.01,2013-05-26 07:24:00,
2013-05-26 03:25:00,53.1,41.7,30.22,SSW,209,0.0,5.0,65,0.00,,SKC,0.00,0.00,VWS V14.01,2013-05-26 07:25:00,
2013-05-26 03:26:00,53.0,41.6,30.22,SSW,209,0.0,5.0,65,0.00,,SKC,0.00,0.00,VWS V14.01,2013-05-26 07:26:00,
2013-05-26 03:27:00,52.9,41.1,30.22,SSW,209,0.0,5.0,64,0.00,,SKC,0.00,0.00,VWS V14.01,2013-05-26 07:27:00,
2013-05-26 03:29:00,52.7,41.7,30.22,SSW,209,0.0,5.0,66,0.00,,SKC,0.00,0.00,VWS V14.01,2013-05-26 07:29:00,
2013-05-26 03:30:00,52.6,41.6,30.21,SSW,209,0.0,5.0,66,0.00,,SKC,0.00,0.00,VWS V14.01,2013-05-26 07:30:00,
2013-05-26 03:31:00,52.5,41.5,30.21,SSW,209,0.0,0.0,66,0.00,,SKC,0.00,0.00,VWS V14.01,2013-05-26 07:31:00,
2013-05-26 03:32:00,52.5,41.5,30.21,SSW,209,0.0,0.0,66,0.00,,SKC,0.00,0.00,VWS V14.01,2013-05-26 07:32:00,
2013-05-26 03:34:00,52.4,41.8,30.21,SSW,209,1.0,2.0,67,0.00,,SKC,0.00,0.00,VWS V14.01,2013-05-26 07:34:00,
2013-05-26 03:35:00,52.4,41.8,30.21,WSW,250,1.0,2.0,67,0.00,,SKC,0.00,0.00,VWS V14.01,2013-05-26 07:35:00,
2013-05-26 03:36:00,52.3,41.3,30.21,WSW,252,0.0,2.0,66,0.00,,SKC,0.00,0.00,VWS V14.01,2013-05-26 07:36:00,
2013-05-26 03:37:00,52.3,41.3,30.21,WSW,252,0.0,2.0,66,0.00,,SKC,0.00,0.00,VWS V14.01,2013-05-26 07:37:00,
2013-05-26 03:39:00,52.2,41.6,30.22,WSW,252,0.0,2.0,67,0.00,,SKC,0.00,0.00,VWS V14.01,2013-05-26 07:39:00,
2013-05-26 03:40:00,52.2,41.6,30.22,WSW,252,0.0,2.0,67,0.00,,SKC,0.00,0.00,VWS V14.01,2013-05-26 07:40:00,
2013-05-26 03:41:00,52.2,41.6,30.22,WSW,252,0.0,2.0,67,0.00,,SKC,0.00,0.00,VWS V14.01,2013-05-26 07:41:00,
2013-05-26 03:42:00,52.2,41.6,30.22,WSW,252,0.0,2.0,67,0.00,,SKC,0.00,0.00,VWS V14.01,2013-05-26 07:42:00,
2013-05-26 03:44:00,52.1,41.5,30.22,WSW,252,0.0,2.0,67,0.00,,SKC,0.00,0.00,VWS V14.01,2013-05-26 07:44:00,
2013-05-26 03:45:00,52.1,41.5,30.21,WSW,252,0.0,2.0,67,0.00,,SKC,0.00,0.00,VWS V14.01,2013-05-26 07:45:00,
2013-05-26 03:46:00,52.0,41.8,30.21,WSW,252,0.0,2.0,68,0.00,,SKC,0.00,0.00,VWS V14.01,2013-05-26 07:46:00,
2013-05-26 03:47:00,51.8,41.6,30.21,WSW,252,0.0,2.0,68,0.00,,SKC,0.00,0.00,VWS V14.01,2013-05-26 07:47:00,
2013-05-26 03:49:00,51.7,41.5,30.21,WSW,252,0.0,2.0,68,0.00,,SKC,0.00,0.00,VWS V14.01,2013-05-26 07:49:00,
2013-05-26 03:50:00,51.7,41.5,30.21,WSW,252,0.0,2.0,68,0.00,,SKC,0.00,0.00,VWS V14.01,2013-05-26 07:50:00,
2013-05-26 03:51:00,51.7,41.5,30.21,WSW,252,2.0,2.0,68,0.00,,SKC,0.00,0.00,VWS V14.01,2013-05-26 07:51:00,
2013-05-26 03:52:00,51.7,41.9,30.21,WSW,252,2.0,2.0,69,0.00,,SKC,0.00,0.00,VWS V14.01,2013-05-26 07:52:00,
2013-05-26 03:53:00,51.6,41.8,30.21,WSW,251,0.0,2.0,69,0.00,,SKC,0.00,0.00,VWS V14.01,2013-05-26 07:53:00,
2013-05-26 03:54:00,51.5,41.7,30.21,WSW,251,0.0,2.0,69,0.00,,SKC,0.00,0.00,VWS V14.01,2013-05-26 07:54:00,
2013-05-26 03:56:00,51.4,41.6,30.21,WSW,250,0.0,2.0,69,0.00,,SKC,0.00,0.00,VWS V14.01,2013-05-26 07:56:00,
2013-05-26 03:57:00,51.2,41.4,30.21,WSW,250,0.0,2.0,69,0.00,,SKC,0.00,0.00,VWS V14.01,2013-05-26 07:57:00,
2013-05-26 03:58:00,51.2,41.4,30.21,WSW,250,0.0,2.0,69,0.00,,SKC,0.00,0.00,VWS V14.01,2013-05-26 07:58:00,
2013-05-26 03:59:00,51.1,41.3,30.21,WSW,250,0.0,2.0,69,0.00,,SKC,0.00,0.00,VWS V14.01,2013-05-26 07:59:00,
2013-05-26 04:01:00,51.0,41.2,30.21,WSW,250,0.0,0.0,69,0.00,,SKC,0.00,0.00,VWS V14.01,2013-05-26 08:01:00,
2013-05-26 04:02:00,51.0,41.2,30.21,WSW,250,0.0,0.0,69,0.00,,SKC,0.00,0.00,VWS V14.01,2013-05-26 08:02:00,
2013-05-26 04:03:00,51.0,41.2,30.21,WSW,250,0.0,0.0,69,0.00,,SKC,0.00,0.00,VWS V14.01,2013-05-26 08:03:00,
2013-05-26 04:05:00,51.0,41.2,30.21,WSW,250,2.0,2.0,69,0.00,,SKC,0.00,0.00,VWS V14.01,2013-05-26 08:05:00,
2013-05-26 04:07:00,51.1,40.5,30.21,SW,227,0.0,3.0,67,0.00,,SKC,0.00,0.00,VWS V14.01,2013-05-26 08:07:00,
2013-05-26 04:08:00,51.2,40.6,30.21,SW,227,0.0,3.0,67,0.00,,SKC,0.00,0.00,VWS V14.01,2013-05-26 08:08:00,
2013-05-26 04:09:00,51.2,41.4,30.21,SW,227,0.0,3.0,69,0.00,,SKC,0.00,0.00,VWS V14.01,2013-05-26 08:09:00,
2013-05-26 04:12:00,51.4,40.8,30.21,SW,227,0.0,3.0,67,0.00,,SKC,0.00,0.00,VWS V14.01,2013-05-26 08:12:00,
2013-05-26 04:13:00,51.4,40.4,30.21,East,84,3.0,3.0,66,0.00,,SKC,0.00,0.00,VWS V14.01,2013-05-26 08:13:00,
2013-05-26 04:14:00,51.5,40.5,30.21,ENE,72,0.0,3.0,66,0.00,,SKC,0.00,0.00,VWS V14.01,2013-05-26 08:14:00,
2013-05-26 04:17:00,51.6,41.8,30.21,ENE,72,0.0,3.0,69,0.00,,SKC,0.00,0.00,VWS V14.01,2013-05-26 08:17:00,
2013-05-26 04:18:00,51.6,41.8,30.21,ENE,72,0.0,3.0,69,0.00,,SKC,0.00,0.00,VWS V14.01,2013-05-26 08:18:00,
2013-05-26 04:19:00,51.5,41.7,30.21,ENE,72,0.0,3.0,69,0.00,,SKC,0.00,0.00,VWS V14.01,2013-05-26 08:19:00,
2013-05-26 04:20:00,51.5,41.7,30.21,ENE,72,0.0,3.0,69,0.00,,SKC,0.00,0.00,VWS V14.01,2013-05-26 08:20:00,
2013-05-26 04:22:00,51.6,41.4,30.21,ENE,72,0.0,3.0,68,0.00,,SKC,0.00,0.00,VWS V14.01,2013-05-26 08:22:00,
2013-05-26 04:23:00,51.6,41.4,30.21,ENE,72,2.0,3.0,68,0.00,,SKC,0.00,0.00,VWS V14.01,2013-05-26 08:23:00,
2013-05-26 04:24:00,51.6,41.8,30.21,ENE,72,0.0,3.0,69,0.00,,SKC,0.00,0.00,VWS V14.01,2013-05-26 08:24:00,
2013-05-26 04:25:00,51.6,41.8,30.21,ENE,72,0.0,3.0,69,0.00,,SKC,0.00,0.00,VWS V14.01,2013-05-26 08:25:00,
2013-05-26 04:28:00,51.6,42.2,30.21,ENE,72,0.0,3.0,70,0.00,,SKC,0.00,0.00,VWS V14.01,2013-05-26 08:28:00,
2013-05-26 04:29:00,51.5,42.0,30.21,ENE,72,0.0,3.0,70,0.00,,SKC,0.00,0.00,VWS V14.01,2013-05-26 08:29:00,
2013-05-26 04:30:00,51.4,42.0,30.21,ENE,72,1.0,3.0,70,0.00,,SKC,0.00,0.00,VWS V14.01,2013-05-26 08:30:00,
2013-05-26 04:33:00,51.5,40.9,30.21,ENE,72,0.0,2.0,67,0.00,,SKC,0.00,0.00,VWS V14.01,2013-05-26 08:33:00,
2013-05-26 04:34:00,51.5,41.3,30.21,ENE,72,0.0,2.0,68,0.00,,SKC,0.00,0.00,VWS V14.01,2013-05-26 08:34:00,
2013-05-26 04:35:00,51.6,41.8,30.21,ENE,72,0.0,2.0,69,0.00,,SKC,0.00,0.00,VWS V14.01,2013-05-26 08:35:00,
2013-05-26 04:36:00,51.6,42.2,30.21,NNW,331,6.0,6.0,70,0.00,,SKC,0.00,0.00,VWS V14.01,2013-05-26 08:36:00,
2013-05-26 04:38:00,51.5,41.7,30.21,NNW,331,2.0,6.0,69,0.00,,SKC,0.00,0.00,VWS V14.01,2013-05-26 08:38:00,
2013-05-26 04:39:00,51.5,41.7,30.21,NNW,331,2.0,6.0,69,0.00,,SKC,0.00,0.00,VWS V14.01,2013-05-26 08:39:00,
2013-05-26 04:40:00,51.5,41.3,30.21,NNW,331,1.0,6.0,68,0.00,,SKC,0.00,0.00,VWS V14.01,2013-05-26 08:40:00,
2013-05-26 04:41:00,51.4,42.0,30.21,NNW,331,0.0,6.0,70,0.00,,SKC,0.00,0.00,VWS V14.01,2013-05-26 08:41:00,
2013-05-26 04:44:00,51.4,41.6,30.21,NNW,331,0.0,6.0,69,0.00,,SKC,0.00,0.00,VWS V14.01,2013-05-26 08:44:00,
2013-05-26 04:45:00,51.3,41.9,30.21,NNW,331,0.0,6.0,70,0.00,,SKC,0.00,0.00,VWS V14.01,2013-05-26 08:45:00,
2013-05-26 04:46:00,51.2,42.5,30.21,NNW,331,2.0,6.0,72,0.00,,SKC,0.00,0.00,VWS V14.01,2013-05-26 08:46:00,
2013-05-26 04:49:00,50.8,41.8,30.21,NNW,331,0.0,6.0,71,0.00,,SKC,0.00,0.00,VWS V14.01,2013-05-26 08:49:00,
2013-05-26 04:50:00,50.7,42.0,30.21,NNW,331,1.0,6.0,72,0.00,,SKC,0.00,0.00,VWS V14.01,2013-05-26 08:50:00,
2013-05-26 04:52:00,50.6,41.9,30.21,NNW,331,0.0,6.0,72,0.00,,SKC,0.00,0.00,VWS V14.01,2013-05-26 08:52:00,
2013-05-26 04:54:00,50.5,42.2,30.22,NNW,331,2.0,6.0,73,0.00,,SKC,0.00,0.00,VWS V14.01,2013-05-26 08:54:00,
2013-05-26 04:55:00,50.3,42.0,30.21,NNW,331,1.0,6.0,73,0.00,,SKC,0.00,0.00,VWS V14.01,2013-05-26 08:55:00,
2013-05-26 04:56:00,50.3,42.3,30.21,NNW,331,2.0,6.0,74,0.00,,SKC,0.00,0.00,VWS V14.01,2013-05-26 08:56:00,
2013-05-26 04:57:00,50.3,42.0,30.21,WNW,301,3.0,6.0,73,0.00,,SKC,0.00,0.00,VWS V14.01,2013-05-26 08:57:00,
2013-05-26 04:59:00,50.4,41.7,30.22,SSW,211,5.0,6.0,72,0.00,,SKC,0.00,0.00,VWS V14.01,2013-05-26 08:59:00,
2013-05-26 05:00:00,50.8,41.8,30.22,SSW,209,2.0,6.0,71,0.00,,SKC,0.00,0.00,VWS V14.01,2013-05-26 09:00:00,
2013-05-26 05:01:00,51.2,41.8,30.22,SSW,205,4.0,4.0,70,0.00,,SKC,0.00,0.00,VWS V14.01,2013-05-26 09:01:00,
2013-05-26 05:02:00,51.4,42.0,30.22,SSW,204,4.0,4.0,70,0.00,,SKC,0.00,0.00,VWS V14.01,2013-05-26 09:02:00,
2013-05-26 05:04:00,51.8,41.6,30.21,SSW,205,1.0,7.0,68,0.00,,SKC,0.00,0.00,VWS V14.01,2013-05-26 09:04:00,
2013-05-26 05:05:00,51.9,41.7,30.21,SSW,205,2.0,7.0,68,0.00,,SKC,0.00,0.00,VWS V14.01,2013-05-26 09:05:00,
2013-05-26 05:06:00,52.1,41.5,30.21,SSW,205,1.0,7.0,67,0.00,,SKC,0.00,0.00,VWS V14.01,2013-05-26 09:06:00,
2013-05-26 05:07:00,52.1,41.9,30.21,SSW,205,0.0,7.0,68,0.00,,SKC,0.00,0.00,VWS V14.01,2013-05-26 09:07:00,
2013-05-26 05:09:00,52.1,41.9,30.22,SSW,198,2.0,7.0,68,0.00,,SKC,0.00,0.00,VWS V14.01,2013-05-26 09:09:00,
2013-05-26 05:10:00,52.1,41.9,30.21,South,189,2.0,7.0,68,0.00,,SKC,0.00,0.00,VWS V14.01,2013-05-26 09:10:00,
2013-05-26 05:12:00,52.0,41.4,30.21,SE,144,3.0,7.0,67,0.00,,SKC,0.00,0.00,VWS V14.01,2013-05-26 09:12:00,
2013-05-26 05:13:00,52.0,41.8,30.21,SE,144,3.0,7.0,68,0.00,,SKC,0.00,0.00,VWS V14.01,2013-05-26 09:13:00,
2013-05-26 05:14:00,51.8,41.6,30.22,SSE,148,2.0,7.0,68,0.00,,SKC,0.00,0.00,VWS V14.01,2013-05-26 09:14:00,
2013-05-26 05:15:00,51.7,41.9,30.22,SSE,148,0.0,7.0,69,0.00,,SKC,0.00,0.00,VWS V14.01,2013-05-26 09:15:00,
2013-05-26 05:17:00,51.6,41.8,30.22,SSE,148,2.0,7.0,69,0.00,,SKC,0.00,0.00,VWS V14.01,2013-05-26 09:17:00,
2013-05-26 05:18:00,51.6,41.4,30.22,SSE,148,2.0,7.0,68,0.00,,SKC,0.00,0.00,VWS V14.01,2013-05-26 09:18:00,
2013-05-26 05:19:00,51.6,41.8,30.22,SSW,200,2.0,7.0,69,0.00,,SKC,0.00,0.00,VWS V14.01,2013-05-26 09:19:00,
2013-05-26 05:20:00,51.8,41.2,30.22,WSW,257,3.0,7.0,67,0.00,,SKC,0.00,0.00,VWS V14.01,2013-05-26 09:20:00,
2013-05-26 05:22:00,51.9,42.4,30.22,WNW,303,2.0,7.0,70,0.00,,SKC,0.00,0.00,VWS V14.01,2013-05-26 09:22:00,
2013-05-26 05:23:00,51.9,42.4,30.22,WNW,303,2.0,7.0,70,0.00,,SKC,0.00,0.00,VWS V14.01,2013-05-26 09:23:00,
2013-05-26 05:24:00,51.8,42.0,30.22,WNW,303,0.0,7.0,69,0.00,,SKC,0.00,0.00,VWS V14.01,2013-05-26 09:24:00,
2013-05-26 05:25:00,51.7,41.5,30.22,WNW,303,0.0,7.0,68,0.00,,SKC,0.00,0.00,VWS V14.01,2013-05-26 09:25:00,
2013-05-26 05:26:00,51.7,41.5,30.22,WNW,303,0.0,7.0,68,0.00,,SKC,0.00,0.00,VWS V14.01,2013-05-26 09:26:00,
2013-05-26 05:28:00,51.7,41.9,30.22,WNW,303,0.0,7.0,69,0.00,,SKC,0.00,0.00,VWS V14.01,2013-05-26 09:28:00,
2013-05-26 05:29:00,51.6,41.4,30.22,WNW,303,1.0,7.0,68,0.00,,SKC,0.00,0.00,VWS V14.01,2013-05-26 09:29:00,
2013-05-26 05:31:00,51.6,41.4,30.22,WNW,296,1.0,7.0,68,0.00,,SKC,0.00,0.00,VWS V14.01,2013-05-26 09:31:00,
2013-05-26 05:33:00,51.6,41.8,30.22,WNW,296,0.0,0.0,69,0.00,,SKC,0.00,0.00,VWS V14.01,2013-05-26 09:33:00,
2013-05-26 05:34:00,51.6,41.4,30.22,WNW,296,0.0,0.0,68,0.00,,SKC,0.00,0.00,VWS V14.01,2013-05-26 09:34:00,
2013-05-26 05:36:00,51.6,41.4,30.22,WNW,296,0.0,0.0,68,0.00,,SKC,0.00,0.00,VWS V14.01,2013-05-26 09:36:00,
2013-05-26 05:38:00,51.6,41.4,30.22,WNW,296,0.0,0.0,68,0.00,,SKC,0.00,0.00,VWS V14.01,2013-05-26 09:38:00,
2013-05-26 05:39:00,51.6,41.4,30.22,WNW,296,0.0,0.0,68,0.00,,SKC,0.00,0.00,VWS V14.01,2013-05-26 09:39:00,
2013-05-26 05:41:00,51.5,41.3,30.22,WNW,296,0.0,0.0,68,0.00,,SKC,0.00,0.00,VWS V14.01,2013-05-26 09:41:00,
2013-05-26 05:43:00,51.5,41.3,30.22,WNW,296,0.0,0.0,68,0.00,,SKC,0.00,0.00,VWS V14.01,2013-05-26 09:43:00,
2013-05-26 05:45:00,51.5,41.3,30.22,WNW,296,0.0,0.0,68,0.00,,SKC,0.00,0.00,VWS V14.01,2013-05-26 09:45:00,
2013-05-26 05:46:00,51.5,41.7,30.22,WNW,296,0.0,0.0,69,0.00,,SKC,0.00,0.00,VWS V14.01,2013-05-26 09:46:00,
2013-05-26 05:48:00,51.6,41.4,30.22,WNW,296,0.0,1.0,68,0.00,,SKC,0.00,0.00,VWS V14.01,2013-05-26 09:48:00,
2013-05-26 05:50:00,51.7,41.1,30.22,WNW,297,0.0,2.0,67,0.00,,SKC,0.00,0.00,VWS V14.01,2013-05-26 09:50:00,
2013-05-26 05:51:00,51.7,42.2,30.22,WNW,297,0.0,2.0,70,0.00,,SKC,0.00,0.00,VWS V14.01,2013-05-26 09:51:00,
2013-05-26 05:54:00,51.8,41.6,30.22,WNW,297,0.0,2.0,68,0.00,,SKC,0.00,0.00,VWS V14.01,2013-05-26 09:54:00,
2013-05-26 05:55:00,51.8,42.0,30.22,WNW,297,2.0,2.0,69,0.00,,SKC,0.00,5.00,VWS V14.01,2013-05-26 09:55:00,
2013-05-26 05:56:00,51.8,42.0,30.22,WNW,297,0.0,2.0,69,0.00,,SKC,0.00,5.00,VWS V14.01,2013-05-26 09:56:00,
2013-05-26 05:57:00,51.8,42.0,30.22,WNW,297,1.0,2.0,69,0.00,,SKC,0.00,5.00,VWS V14.01,2013-05-26 09:57:00,
2013-05-26 05:59:00,51.8,42.0,30.22,WNW,297,1.0,3.0,69,0.00,,SKC,0.00,7.00,VWS V14.01,2013-05-26 09:59:00,
2013-05-26 06:00:00,51.8,41.6,30.23,WNW,297,0.0,3.0,68,0.00,,SKC,0.00,7.00,VWS V14.01,2013-05-26 10:00:00,
2013-05-26 06:01:00,51.8,41.6,30.23,WNW,297,0.0,0.0,68,0.00,,SKC,0.00,5.00,VWS V14.01,2013-05-26 10:01:00,
2013-05-26 06:02:00,51.8,41.6,30.23,WNW,297,0.0,0.0,68,0.00,,SKC,0.00,5.00,VWS V14.01,2013-05-26 10:02:00,
2013-05-26 06:04:00,51.7,41.5,30.23,WNW,297,0.0,0.0,68,0.00,,SKC,0.00,0.00,VWS V14.01,2013-05-26 10:04:00,
2013-05-26 06:05:00,51.7,41.1,30.23,WNW,297,0.0,0.0,67,0.00,,SKC,0.00,0.00,VWS V14.01,2013-05-26 10:05:00,
2013-05-26 06:06:00,51.7,41.1,30.23,WNW,297,0.0,0.0,67,0.00,,SKC,0.00,0.00,VWS V14.01,2013-05-26 10:06:00,
2013-05-26 06:07:00,51.7,41.1,30.23,WNW,297,0.0,0.0,67,0.00,,SKC,0.00,0.00,VWS V14.01,2013-05-26 10:07:00,
2013-05-26 06:09:00,51.7,41.1,30.23,WNW,297,0.0,0.0,67,0.00,,SKC,0.00,7.00,VWS V14.01,2013-05-26 10:09:00,
2013-05-26 06:10:00,51.7,41.1,30.23,WNW,297,0.0,0.0,67,0.00,,SKC,0.00,9.00,VWS V14.01,2013-05-26 10:10:00,
2013-05-26 06:12:00,51.6,41.0,30.23,WNW,297,1.0,1.0,67,0.00,,SKC,0.00,11.00,VWS V14.01,2013-05-26 10:12:00,
2013-05-26 06:14:00,51.5,41.3,30.23,WNW,297,1.0,2.0,68,0.00,,SKC,0.00,11.00,VWS V14.01,2013-05-26 10:14:00,
2013-05-26 06:15:00,51.5,41.3,30.23,WNW,297,0.0,2.0,68,0.00,,SKC,0.00,12.00,VWS V14.01,2013-05-26 10:15:00,
2013-05-26 06:17:00,51.4,41.6,30.23,WNW,297,0.0,2.0,69,0.00,,SKC,0.00,16.00,VWS V14.01,2013-05-26 10:17:00,
2013-05-26 06:19:00,51.4,41.6,30.23,WNW,297,0.0,2.0,69,0.00,,SKC,0.00,16.00,VWS V14.01,2013-05-26 10:19:00,
2013-05-26 06:20:00,51.4,42.0,30.23,WNW,297,0.0,2.0,70,0.00,,SKC,0.00,18.00,VWS V14.01,2013-05-26 10:20:00,
2013-05-26 06:21:00,51.3,41.9,30.23,WNW,297,0.0,2.0,70,0.00,,SKC,0.00,19.00,VWS V14.01,2013-05-26 10:21:00,
2013-05-26 06:23:00,51.3,41.9,30.24,WNW,297,0.0,2.0,70,0.00,,SKC,0.00,19.00,VWS V14.01,2013-05-26 10:23:00,
2013-05-26 06:25:00,51.3,41.5,30.24,WNW,297,0.0,2.0,69,0.00,,SKC,0.00,21.00,VWS V14.01,2013-05-26 10:25:00,
2013-05-26 06:26:00,51.3,41.5,30.24,WNW,297,0.0,2.0,69,0.00,,SKC,0.00,23.00,VWS V14.01,2013-05-26 10:26:00,
2013-05-26 06:27:00,51.3,41.5,30.24,WNW,297,0.0,2.0,69,0.00,,SKC,0.00,23.00,VWS V14.01,2013-05-26 10:27:00,
2013-05-26 06:28:00,51.3,41.5,30.24,WNW,297,0.0,2.0,69,0.00,,SKC,0.00,26.00,VWS V14.01,2013-05-26 10:28:00,
2013-05-26 06:30:00,51.3,41.9,30.24,WNW,297,0.0,2.0,70,0.00,,SKC,0.00,26.00,VWS V14.01,2013-05-26 10:30:00,
2013-05-26 06:31:00,51.3,41.9,30.24,WNW,297,0.0,2.0,70,0.00,,SKC,0.00,26.00,VWS V14.01,2013-05-26 10:31:00,
2013-05-26 06:32:00,51.2,42.1,30.24,WNW,297,0.0,0.0,71,0.00,,SKC,0.00,28.00,VWS V14.01,2013-05-26 10:32:00,
2013-05-26 06:33:00,51.2,42.9,30.24,WNW,297,1.0,1.0,73,0.00,,SKC,0.00,28.00,VWS V14.01,2013-05-26 10:33:00,
2013-05-26 06:35:00,51.1,41.7,30.24,WNW,297,0.0,2.0,70,0.00,,SKC,0.00,28.00,VWS V14.01,2013-05-26 10:35:00,
2013-05-26 06:36:00,51.1,41.7,30.24,WNW,297,0.0,2.0,70,0.00,,SKC,0.00,26.00,VWS V14.01,2013-05-26 10:36:00,
2013-05-26 06:37:00,51.1,41.3,30.24,WNW,297,3.0,4.0,69,0.00,,SKC,0.00,26.00,VWS V14.01,2013-05-26 10:37:00,
2013-05-26 06:38:00,51.1,42.0,30.24,WNW,297,0.0,4.0,71,0.00,,SKC,0.00,28.00,VWS V14.01,2013-05-26 10:38:00,
2013-05-26 06:41:00,51.1,41.7,30.24,WNW,297,0.0,4.0,70,0.00,,SKC,0.00,30.00,VWS V14.01,2013-05-26 10:41:00,
2013-05-26 06:42:00,51.1,42.4,30.24,WNW,297,0.0,4.0,72,0.00,,SKC,0.00,32.00,VWS V14.01,2013-05-26 10:42:00,
2013-05-26 06:43:00,51.2,41.8,30.24,WNW,297,0.0,4.0,70,0.00,,SKC,0.00,30.00,VWS V14.01,2013-05-26 10:43:00,
2013-05-26 06:44:00,51.2,41.8,30.24,WNW,297,0.0,4.0,70,0.00,,SKC,0.00,28.00,VWS V14.01,2013-05-26 10:44:00,
2013-05-26 06:46:00,51.2,42.1,30.25,WNW,297,1.0,4.0,71,0.00,,SKC,0.00,26.00,VWS V14.01,2013-05-26 10:46:00,
2013-05-26 06:47:00,51.3,43.0,30.25,WNW,297,1.0,4.0,73,0.00,,SKC,0.00,28.00,VWS V14.01,2013-05-26 10:47:00,
2013-05-26 06:48:00,51.3,43.0,30.25,WNW,297,1.0,4.0,73,0.00,,SKC,0.00,33.00,VWS V14.01,2013-05-26 10:48:00,
2013-05-26 06:49:00,51.3,42.6,30.25,WNW,297,1.0,4.0,72,0.00,,SKC,0.00,33.00,VWS V14.01,2013-05-26 10:49:00,
2013-05-26 06:51:00,51.2,42.9,30.25,WNW,297,0.0,4.0,73,0.00,,SKC,0.00,42.00,VWS V14.01,2013-05-26 10:51:00,
2013-05-26 06:52:00,51.1,43.5,30.25,WNW,297,0.0,4.0,75,0.00,,SKC,0.00,47.00,VWS V14.01,2013-05-26 10:52:00,
2013-05-26 06:53:00,51.1,42.8,30.25,WNW,297,0.0,4.0,73,0.00,,SKC,0.00,54.00,VWS V14.01,2013-05-26 10:53:00,
2013-05-26 06:54:00,51.0,42.7,30.25,WNW,297,0.0,4.0,73,0.00,,SKC,0.00,54.00,VWS V14.01,2013-05-26 10:54:00,
2013-05-26 06:56:00,51.0,42.3,30.25,WNW,297,1.0,4.0,72,0.00,,SKC,0.00,65.00,VWS V14.01,2013-05-26 10:56:00,
2013-05-26 06:57:00,51.1,42.0,30.25,WNW,297,0.0,4.0,71,0.00,,SKC,0.00,65.00,VWS V14.01,2013-05-26 10:57:00,
2013-05-26 06:59:00,51.2,42.5,30.25,WNW,297,0.0,4.0,72,0.00,,SKC,0.00,76.00,VWS V14.01,2013-05-26 10:59:00,
2013-05-26 07:01:00,51.4,43.0,30.25,WNW,297,0.0,0.0,73,0.00,,SKC,0.00,72.00,VWS V14.01,2013-05-26 11:01:00,
2013-05-26 07:03:00,51.4,43.4,30.25,WNW,297,0.0,0.0,74,0.00,,SKC,0.00,84.00,VWS V14.01,2013-05-26 11:03:00,
2013-05-26 07:04:00,51.5,43.8,30.25,WNW,297,0.0,0.0,75,0.00,,SKC,0.00,86.00,VWS V14.01,2013-05-26 11:04:00,
2013-05-26 07:06:00,51.8,44.8,30.25,WNW,297,0.0,0.0,77,0.00,,SKC,0.00,95.00,VWS V14.01,2013-05-26 11:06:00,
2013-05-26 07:07:00,51.8,44.5,30.25,WNW,297,0.0,0.0,76,0.00,,SKC,0.00,95.00,VWS V14.01,2013-05-26 11:07:00,
2013-05-26 07:08:00,51.8,43.8,30.25,WNW,297,0.0,0.0,74,0.00,,SKC,0.00,95.00,VWS V14.01,2013-05-26 11:08:00,
2013-05-26 07:09:00,51.9,43.9,30.25,WNW,297,0.0,0.0,74,0.00,,SKC,0.00,111.00,VWS V14.01,2013-05-26 11:09:00,
2013-05-26 07:12:00,52.2,45.2,30.25,WNW,297,0.0,1.0,77,0.00,,SKC,0.00,88.00,VWS V14.01,2013-05-26 11:12:00,
2013-05-26 07:13:00,52.4,45.8,30.25,WNW,297,0.0,1.0,78,0.00,,SKC,0.00,84.00,VWS V14.01,2013-05-26 11:13:00,
2013-05-26 07:14:00,52.4,45.8,30.25,WNW,297,0.0,1.0,78,0.00,,SKC,0.00,84.00,VWS V14.01,2013-05-26 11:14:00,
2013-05-26 07:17:00,52.7,45.4,30.25,WNW,297,0.0,1.0,76,0.00,,SKC,0.00,88.00,VWS V14.01,2013-05-26 11:17:00,
2013-05-26 07:18:00,52.9,46.2,30.25,WNW,297,0.0,1.0,78,0.00,,SKC,0.00,88.00,VWS V14.01,2013-05-26 11:18:00,
2013-05-26 07:19:00,53.0,46.7,30.25,WNW,297,0.0,1.0,79,0.00,,SKC,0.00,88.00,VWS V14.01,2013-05-26 11:19:00,
2013-05-26 07:22:00,53.2,46.9,30.25,WNW,297,0.0,1.0,79,0.00,,SKC,0.00,91.00,VWS V14.01,2013-05-26 11:22:00,
2013-05-26 07:23:00,53.2,46.5,30.25,WNW,297,0.0,1.0,78,0.00,,SKC,0.00,93.00,VWS V14.01,2013-05-26 11:23:00,
2013-05-26 07:24:00,53.2,46.5,30.25,WNW,297,0.0,1.0,78,0.00,,SKC,0.00,95.00,VWS V14.01,2013-05-26 11:24:00,
2013-05-26 07:25:00,53.3,46.6,30.25,WNW,297,0.0,1.0,78,0.00,,SKC,0.00,97.00,VWS V14.01,2013-05-26 11:25:00,
2013-05-26 07:27:00,53.3,46.6,30.25,WNW,297,0.0,1.0,78,0.00,,SKC,0.00,107.00,VWS V14.01,2013-05-26 11:27:00,
2013-05-26 07:28:00,53.4,46.7,30.25,WNW,297,0.0,1.0,78,0.00,,SKC,0.00,111.00,VWS V14.01,2013-05-26 11:28:00,
2013-05-26 07:29:00,53.4,47.1,30.25,WNW,297,0.0,1.0,79,0.00,,SKC,0.00,114.00,VWS V14.01,2013-05-26 11:29:00,
2013-05-26 07:30:00,53.5,47.2,30.25,WNW,297,0.0,1.0,79,0.00,,SKC,0.00,118.00,VWS V14.01,2013-05-26 11:30:00,
2013-05-26 07:32:00,53.6,47.6,30.25,WNW,297,0.0,0.0,80,0.00,,SKC,0.00,128.00,VWS V14.01,2013-05-26 11:32:00,
2013-05-26 07:33:00,53.7,48.0,30.25,WNW,297,0.0,0.0,81,0.00,,SKC,0.00,130.00,VWS V14.01,2013-05-26 11:33:00,
2013-05-26 07:34:00,53.7,47.3,30.25,WNW,297,1.0,1.0,79,0.00,,SKC,0.00,134.00,VWS V14.01,2013-05-26 11:34:00,
2013-05-26 07:35:00,53.7,47.3,30.25,WNW,297,2.0,2.0,79,0.00,,SKC,0.00,134.00,VWS V14.01,2013-05-26 11:35:00,
2013-05-26 07:37:00,53.6,46.2,30.25,WNW,297,0.0,2.0,76,0.00,,SKC,0.00,192.00,VWS V14.01,2013-05-26 11:37:00,
2013-05-26 07:38:00,53.6,46.2,30.25,WNW,297,0.0,2.0,76,0.00,,SKC,0.00,197.00,VWS V14.01,2013-05-26 11:38:00,
2013-05-26 07:39:00,53.6,45.9,30.25,WNW,297,0.0,2.0,75,0.00,,SKC,0.00,176.00,VWS V14.01,2013-05-26 11:39:00,
2013-05-26 07:40:00,53.7,46.0,30.25,WNW,297,0.0,2.0,75,0.00,,SKC,0.00,272.00,VWS V14.01,2013-05-26 11:40:00,
2013-05-26 07:43:00,53.9,46.5,30.25,WNW,297,0.0,2.0,76,0.00,,SKC,0.00,295.00,VWS V14.01,2013-05-26 11:43:00,
2013-05-26 07:45:00,54.2,46.8,30.25,WNW,297,0.0,2.0,76,0.00,,SKC,0.00,329.00,VWS V14.01,2013-05-26 11:45:00,
2013-05-26 07:46:00,54.4,47.0,30.25,WNW,297,0.0,2.0,76,0.00,,SKC,0.00,327.00,VWS V14.01,2013-05-26 11:46:00,
2013-05-26 07:48:00,55.0,47.2,30.25,WNW,297,0.0,2.0,75,0.00,,SKC,0.00,325.00,VWS V14.01,2013-05-26 11:48:00,
2013-05-26 07:49:00,55.1,46.2,30.25,WNW,297,0.0,2.0,72,0.00,,SKC,0.00,323.00,VWS V14.01,2013-05-26 11:49:00,
2013-05-26 07:50:00,55.3,46.4,30.25,WNW,297,0.0,2.0,72,0.00,,SKC,0.00,323.00,VWS V14.01,2013-05-26 11:50:00,
2013-05-26 07:51:00,55.4,46.2,30.25,WNW,297,0.0,2.0,71,0.00,,SKC,0.00,323.00,VWS V14.01,2013-05-26 11:51:00,
2013-05-26 07:54:00,56.1,46.5,30.25,WNW,297,1.0,2.0,70,0.00,,SKC,0.00,323.00,VWS V14.01,2013-05-26 11:54:00,
2013-05-26 07:55:00,56.5,47.2,30.25,WNW,297,0.0,2.0,71,0.00,,SKC,0.00,325.00,VWS V14.01,2013-05-26 11:55:00,
2013-05-26 07:56:00,56.6,46.9,30.25,WNW,297,0.0,2.0,70,0.00,,SKC,0.00,327.00,VWS V14.01,2013-05-26 11:56:00,
2013-05-26 07:59:00,56.8,45.2,30.25,WNW,297,1.0,2.0,65,0.00,,SKC,0.00,334.00,VWS V14.01,2013-05-26 11:59:00,
2013-05-26 08:00:00,57.1,45.9,30.25,WNW,297,0.0,2.0,66,0.00,,SKC,0.00,341.00,VWS V14.01,2013-05-26 12:00:00,
2013-05-26 08:01:00,57.1,45.9,30.25,WNW,297,0.0,2.0,66,0.00,,SKC,0.00,341.00,VWS V14.01,2013-05-26 12:01:00,
2013-05-26 08:04:00,57.6,45.1,30.25,WNW,297,0.0,2.0,63,0.00,,SKC,0.00,330.00,VWS V14.01,2013-05-26 12:04:00,
2013-05-26 08:05:00,57.6,45.1,30.25,WNW,297,1.0,2.0,63,0.00,,SKC,0.00,330.00,VWS V14.01,2013-05-26 12:05:00,
2013-05-26 08:06:00,57.7,43.5,30.25,WNW,296,1.0,3.0,59,0.00,,SKC,0.00,327.00,VWS V14.01,2013-05-26 12:06:00,
2013-05-26 08:07:00,57.8,44.0,30.25,WNW,294,1.0,3.0,60,0.00,,SKC,0.00,327.00,VWS V14.01,2013-05-26 12:07:00,
2013-05-26 08:10:00,57.9,42.8,30.25,WNW,290,0.0,3.0,57,0.00,,SKC,0.00,318.00,VWS V14.01,2013-05-26 12:10:00,
2013-05-26 08:11:00,58.0,42.4,30.25,WNW,290,0.0,3.0,56,0.00,,SKC,0.00,316.00,VWS V14.01,2013-05-26 12:11:00,
2013-05-26 08:12:00,58.1,43.4,30.25,WNW,290,0.0,3.0,58,0.00,,SKC,0.00,316.00,VWS V14.01,2013-05-26 12:12:00,
2013-05-26 08:15:00,58.5,43.8,30.25,WNW,290,0.0,3.0,58,0.00,,SKC,0.00,318.00,VWS V14.01,2013-05-26 12:15:00,
2013-05-26 08:16:00,58.6,44.3,30.25,WNW,290,0.0,3.0,59,0.00,,SKC,0.00,318.00,VWS V14.01,2013-05-26 12:16:00,
2013-05-26 08:17:00,58.6,44.8,30.25,WNW,290,0.0,3.0,60,0.00,,SKC,0.00,318.00,VWS V14.01,2013-05-26 12:17:00,
2013-05-26 08:20:00,58.9,43.2,30.25,NNW,327,2.0,5.0,56,0.00,,SKC,0.00,323.00,VWS V14.01,2013-05-26 12:20:00,
2013-05-26 08:21:00,59.0,42.9,30.25,NNW,327,0.0,5.0,55,0.00,,SKC,0.00,332.00,VWS V14.01,2013-05-26 12:21:00,
2013-05-26 08:22:00,59.0,42.9,30.25,NNW,327,0.0,5.0,55,0.00,,SKC,0.00,332.00,VWS V14.01,2013-05-26 12:22:00,
2013-05-26 08:25:00,59.4,43.2,30.25,NNW,327,1.0,5.0,55,0.00,,SKC,0.00,345.00,VWS V14.01,2013-05-26 12:25:00,
2013-05-26 08:26:00,59.6,43.9,30.25,NNW,327,0.0,5.0,56,0.00,,SKC,0.00,348.00,VWS V14.01,2013-05-26 12:26:00,
2013-05-26 08:27:00,59.7,44.0,30.25,NNW,327,0.0,5.0,56,0.00,,SKC,0.00,350.00,VWS V14.01,2013-05-26 12:27:00,
2013-05-26 08:30:00,60.1,43.9,30.25,NNW,328,1.0,5.0,55,0.00,,SKC,0.00,366.00,VWS V14.01,2013-05-26 12:30:00,
2013-05-26 08:31:00,60.1,43.9,30.25,NNW,328,0.0,5.0,55,0.00,,SKC,0.00,366.00,VWS V14.01,2013-05-26 12:31:00,
2013-05-26 08:32:00,60.3,44.6,30.25,NNE,26,2.0,4.0,56,0.00,,SKC,0.00,373.00,VWS V14.01,2013-05-26 12:32:00,
2013-05-26 08:36:00,61.0,45.2,30.25,NNE,26,0.0,4.0,56,0.00,,SKC,0.00,387.00,VWS V14.01,2013-05-26 12:36:00,
2013-05-26 08:37:00,61.2,45.4,30.25,NNE,26,0.0,4.0,56,0.00,,SKC,0.00,392.00,VWS V14.01,2013-05-26 12:37:00,
2013-05-26 08:41:00,61.5,44.2,30.25,NNW,330,5.0,5.0,53,0.00,,SKC,0.00,417.00,VWS V14.01,2013-05-26 12:41:00,
2013-05-26 08:42:00,61.6,43.3,30.25,North,355,4.0,5.0,51,0.00,,SKC,0.00,425.00,VWS V14.01,2013-05-26 12:42:00,
2013-05-26 08:43:00,61.6,42.8,30.25,NNW,347,3.0,5.0,50,0.00,,SKC,0.00,429.00,VWS V14.01,2013-05-26 12:43:00,
2013-05-26 08:46:00,61.7,43.9,30.25,NNW,327,4.0,5.0,52,0.00,,SKC,0.00,439.00,VWS V14.01,2013-05-26 12:46:00,
2013-05-26 08:47:00,61.8,43.0,30.25,NW,308,3.0,5.0,50,0.00,,SKC,0.00,441.00,VWS V14.01,2013-05-26 12:47:00,
2013-05-26 08:48:00,61.7,41.8,30.25,NW,309,0.0,5.0,48,0.00,,SKC,0.00,439.00,VWS V14.01,2013-05-26 12:48:00,
2013-05-26 08:51:00,61.3,43.0,30.25,NW,309,2.0,5.0,51,0.00,,SKC,0.00,434.00,VWS V14.01,2013-05-26 12:51:00,
2013-05-26 08:52:00,61.2,43.0,30.25,NW,309,1.0,5.0,51,0.00,,SKC,0.00,436.00,VWS V14.01,2013-05-26 12:52:00,
2013-05-26 08:53:00,61.2,43.0,30.25,NW,309,0.0,5.0,51,0.00,,SKC,0.00,436.00,VWS V14.01,2013-05-26 12:53:00,
2013-05-26 08:54:00,61.3,43.5,30.25,NW,309,0.0,5.0,52,0.00,,SKC,0.00,445.00,VWS V14.01,2013-05-26 12:54:00,
2013-05-26 08:56:00,61.4,42.6,30.25,NW,309,0.0,5.0,50,0.00,,SKC,0.00,452.00,VWS V14.01,2013-05-26 12:56:00,
2013-05-26 08:57:00,61.6,42.8,30.25,NW,309,0.0,5.0,50,0.00,,SKC,0.00,455.00,VWS V14.01,2013-05-26 12:57:00,
2013-05-26 08:58:00,61.7,43.4,30.25,NW,309,0.0,5.0,51,0.00,,SKC,0.00,457.00,VWS V14.01,2013-05-26 12:58:00,
2013-05-26 09:00:00,61.8,43.0,30.26,NW,309,0.0,5.0,50,0.00,,SKC,0.00,455.00,VWS V14.01,2013-05-26 13:00:00,
2013-05-26 09:01:00,61.7,42.4,30.26,NW,309,2.0,2.0,49,0.00,,SKC,0.00,457.00,VWS V14.01,2013-05-26 13:01:00,
2013-05-26 09:02:00,61.6,42.3,30.26,NW,309,0.0,2.0,49,0.00,,SKC,0.00,461.00,VWS V14.01,2013-05-26 13:02:00,
2013-05-26 09:03:00,61.7,41.3,30.26,NW,309,2.0,2.0,47,0.00,,SKC,0.00,462.00,VWS V14.01,2013-05-26 13:03:00,
2013-05-26 09:05:00,61.9,41.5,30.26,NW,314,4.0,4.0,47,0.00,,SKC,0.00,464.00,VWS V14.01,2013-05-26 13:05:00,
2013-05-26 09:07:00,62.1,41.1,30.25,NW,315,1.0,4.0,46,0.00,,SKC,0.00,464.00,VWS V14.01,2013-05-26 13:07:00,
2013-05-26 09:08:00,62.2,41.2,30.25,NW,321,3.0,5.0,46,0.00,,SKC,0.00,466.00,VWS V14.01,2013-05-26 13:08:00,
2013-05-26 09:10:00,61.8,40.3,30.26,WNW,300,1.0,5.0,45,0.00,,SKC,0.00,471.00,VWS V14.01,2013-05-26 13:10:00,
2013-05-26 09:12:00,61.8,42.5,30.26,NW,313,3.0,5.0,49,0.00,,SKC,0.00,476.00,VWS V14.01,2013-05-26 13:12:00,
2013-05-26 09:13:00,61.8,41.9,30.25,NW,314,0.0,5.0,48,0.00,,SKC,0.00,482.00,VWS V14.01,2013-05-26 13:13:00,
2013-05-26 09:14:00,61.8,41.9,30.25,NW,314,0.0,5.0,48,0.00,,SKC,0.00,483.00,VWS V14.01,2013-05-26 13:14:00,
2013-05-26 09:15:00,61.9,43.1,30.26,NW,321,3.0,5.0,50,0.00,,SKC,0.00,489.00,VWS V14.01,2013-05-26 13:15:00,
2013-05-26 09:17:00,62.0,41.6,30.26,NW,325,2.0,5.0,47,0.00,,SKC,0.00,496.00,VWS V14.01,2013-05-26 13:17:00,
2013-05-26 09:18:00,62.0,40.4,30.26,NW,320,3.0,9.0,45,0.00,,SKC,0.00,496.00,VWS V14.01,2013-05-26 13:18:00,
2013-05-26 09:19:00,62.0,40.4,30.26,NNW,329,8.0,9.0,45,0.00,,SKC,0.00,499.00,VWS V14.01,2013-05-26 13:19:00,
2013-05-26 09:20:00,62.0,40.4,30.26,NNW,344,4.0,9.0,45,0.00,,SKC,0.00,504.00,VWS V14.01,2013-05-26 13:20:00,
2013-05-26 09:22:00,62.0,41.0,30.26,NNW,346,2.0,9.0,46,0.00,,SKC,0.00,510.00,VWS V14.01,2013-05-26 13:22:00,
2013-05-26 09:23:00,62.1,41.7,30.26,NNW,331,3.0,9.0,47,0.00,,SKC,0.00,512.00,VWS V14.01,2013-05-26 13:23:00,
2013-05-26 09:24:00,62.1,42.2,30.26,NNW,331,2.0,9.0,48,0.00,,SKC,0.00,512.00,VWS V14.01,2013-05-26 13:24:00,
2013-05-26 09:26:00,62.2,41.7,30.26,WNW,299,4.0,9.0,47,0.00,,SKC,0.00,520.00,VWS V14.01,2013-05-26 13:26:00,
2013-05-26 09:27:00,62.2,42.3,30.26,NNW,327,0.0,9.0,48,0.00,,SKC,0.00,529.00,VWS V14.01,2013-05-26 13:27:00,
2013-05-26 09:28:00,62.2,41.7,30.26,NNW,327,2.0,9.0,47,0.00,,SKC,0.00,533.00,VWS V14.01,2013-05-26 13:28:00,
2013-05-26 09:29:00,62.2,41.2,30.26,NNW,327,3.0,9.0,46,0.00,,SKC,0.00,533.00,VWS V14.01,2013-05-26 13:29:00,
2013-05-26 09:31:00,62.2,40.6,30.26,NW,312,4.0,9.0,45,0.00,,SKC,0.00,540.00,VWS V14.01,2013-05-26 13:31:00,
2013-05-26 09:33:00,62.3,40.7,30.26,NW,312,2.0,5.0,45,0.00,,SKC,0.00,545.00,VWS V14.01,2013-05-26 13:33:00,
2013-05-26 09:34:00,62.3,41.8,30.26,NW,312,1.0,5.0,47,0.00,,SKC,0.00,547.00,VWS V14.01,2013-05-26 13:34:00,
2013-05-26 09:36:00,62.5,41.5,30.26,North,351,2.0,5.0,46,0.00,,SKC,0.00,555.00,VWS V14.01,2013-05-26 13:36:00,
2013-05-26 09:38:00,62.7,42.8,30.26,NW,325,3.0,5.0,48,0.00,,SKC,0.00,559.00,VWS V14.01,2013-05-26 13:38:00,
2013-05-26 09:39:00,62.7,42.8,30.26,NW,318,3.0,5.0,48,0.00,,SKC,0.00,563.00,VWS V14.01,2013-05-26 13:39:00,
2013-05-26 09:40:00,62.7,41.6,30.26,NW,321,3.0,5.0,46,0.00,,SKC,0.00,564.00,VWS V14.01,2013-05-26 13:40:00,
2013-05-26 09:41:00,62.7,42.8,30.27,NNW,331,0.0,6.0,48,0.00,,SKC,0.00,570.00,VWS V14.01,2013-05-26 13:41:00,
2013-05-26 09:43:00,62.6,42.1,30.27,NNW,327,0.0,6.0,47,0.00,,SKC,0.00,573.00,VWS V14.01,2013-05-26 13:43:00,
2013-05-26 09:44:00,62.6,41.0,30.27,NNW,327,0.0,6.0,45,0.00,,SKC,0.00,575.00,VWS V14.01,2013-05-26 13:44:00,
2013-05-26 09:47:00,62.5,42.0,30.27,NW,315,3.0,6.0,47,0.00,,SKC,0.00,584.00,VWS V14.01,2013-05-26 13:47:00,
2013-05-26 09:48:00,62.5,42.0,30.27,NW,310,3.0,6.0,47,0.00,,SKC,0.00,589.00,VWS V14.01,2013-05-26 13:48:00,
2013-05-26 09:49:00,62.6,42.7,30.27,NW,311,0.0,6.0,48,0.00,,SKC,0.00,592.00,VWS V14.01,2013-05-26 13:49:00,
2013-05-26 09:50:00,62.7,43.3,30.27,NNW,339,4.0,6.0,49,0.00,,SKC,0.00,594.00,VWS V14.01,2013-05-26 13:50:00,
2013-05-26 09:52:00,62.7,41.6,30.26,NW,324,5.0,6.0,46,0.00,,SKC,0.00,599.00,VWS V14.01,2013-05-26 13:52:00,
2013-05-26 09:54:00,62.7,39.3,30.26,NNW,339,5.0,8.0,42,0.00,,SKC,0.00,608.00,VWS V14.01,2013-05-26 13:54:00,
2013-05-26 09:55:00,62.6,40.4,30.26,NNW,338,2.0,8.0,44,0.00,,SKC,0.00,610.00,VWS V14.01,2013-05-26 13:55:00,
2013-05-26 09:57:00,62.5,40.9,30.26,NNW,348,6.0,8.0,45,0.00,,SKC,0.00,613.00,VWS V14.01,2013-05-26 13:57:00,
2013-05-26 09:59:00,62.4,39.6,30.26,NNW,341,4.0,10.0,43,0.00,,SKC,0.00,621.00,VWS V14.01,2013-05-26 13:59:00,
2013-05-26 10:00:00,62.4,39.6,30.26,NNE,12,3.0,10.0,43,0.00,,SKC,0.00,624.00,VWS V14.01,2013-05-26 14:00:00,
2013-05-26 10:02:00,62.5,39.7,30.26,North,351,4.0,5.0,43,0.00,,SKC,0.00,628.00,VWS V14.01,2013-05-26 14:02:00,
2013-05-26 10:04:00,62.6,40.4,30.26,NNW,327,0.0,6.0,44,0.00,,SKC,0.00,635.00,VWS V14.01,2013-05-26 14:04:00,
2013-05-26 10:05:00,62.7,42.8,30.26,NNW,327,1.0,6.0,48,0.00,,SKC,0.00,636.00,VWS V14.01,2013-05-26 14:05:00,
2013-05-26 10:07:00,63.1,39.7,30.26,WNW,300,5.0,9.0,42,0.00,,SKC,0.00,640.00,VWS V14.01,2013-05-26 14:07:00,
2013-05-26 10:09:00,63.0,39.0,30.26,NNW,332,2.0,9.0,41,0.00,,SKC,0.00,649.00,VWS V14.01,2013-05-26 14:09:00,
2013-05-26 10:10:00,63.0,40.2,30.26,NNW,331,0.0,9.0,43,0.00,,SKC,0.00,650.00,VWS V14.01,2013-05-26 14:10:00,
2013-05-26 10:13:00,63.0,39.6,30.26,NNW,336,4.0,9.0,42,0.00,,SKC,0.00,657.00,VWS V14.01,2013-05-26 14:13:00,
2013-05-26 10:14:00,63.0,41.3,30.26,NNW,328,2.0,9.0,45,0.00,,SKC,0.00,663.00,VWS V14.01,2013-05-26 14:14:00,
2013-05-26 10:15:00,63.1,41.4,30.26,NNW,327,9.0,9.0,45,0.00,,SKC,0.00,666.00,VWS V14.01,2013-05-26 14:15:00,
2013-05-26 10:18:00,63.1,39.0,30.26,NNW,333,6.0,11.0,41,0.00,,SKC,0.00,673.00,VWS V14.01,2013-05-26 14:18:00,
2013-05-26 10:20:00,63.1,40.3,30.26,North,9,7.0,11.0,43,0.00,,SKC,0.00,677.00,VWS V14.01,2013-05-26 14:20:00,
2013-05-26 10:21:00,63.2,41.0,30.26,NNW,336,4.0,11.0,44,0.00,,SKC,0.00,679.00,VWS V14.01,2013-05-26 14:21:00,
2013-05-26 10:23:00,63.4,39.3,30.26,WNW,286,3.0,11.0,41,0.00,,SKC,0.00,689.00,VWS V14.01,2013-05-26 14:23:00,
2013-05-26 10:25:00,63.3,38.6,30.26,WNW,286,0.0,11.0,40,0.00,,SKC,0.00,694.00,VWS V14.01,2013-05-26 14:25:00,
2013-05-26 10:26:00,63.4,41.1,30.26,NNW,328,2.0,11.0,44,0.00,,SKC,0.00,694.00,VWS V14.01,2013-05-26 14:26:00,
2013-05-26 10:29:00,63.6,38.2,30.26,WNW,298,0.0,11.0,39,0.00,,SKC,0.00,703.00,VWS V14.01,2013-05-26 14:29:00,
2013-05-26 10:30:00,63.8,39.7,30.26,NW,319,9.0,11.0,41,0.00,,SKC,0.00,707.00,VWS V14.01,2013-05-26 14:30:00,
2013-05-26 10:31:00,63.8,39.7,30.26,WNW,290,4.0,11.0,41,0.00,,SKC,0.00,707.00,VWS V14.01,2013-05-26 14:31:00,
2013-05-26 10:34:00,63.6,38.9,30.26,NW,312,3.0,9.0,40,0.00,,SKC,0.00,717.00,VWS V14.01,2013-05-26 14:34:00,
2013-05-26 10:35:00,63.6,38.2,30.26,WNW,300,5.0,9.0,39,0.00,,SKC,0.00,721.00,VWS V14.01,2013-05-26 14:35:00,
2013-05-26 10:36:00,63.6,38.2,30.26,NNW,344,6.0,9.0,39,0.00,,SKC,0.00,721.00,VWS V14.01,2013-05-26 14:36:00,
2013-05-26 10:39:00,63.5,38.1,30.26,NW,306,1.0,9.0,39,0.00,,SKC,0.00,731.00,VWS V14.01,2013-05-26 14:39:00,
2013-05-26 10:41:00,63.4,36.0,30.26,NW,306,0.0,9.0,36,0.00,,SKC,0.00,735.00,VWS V14.01,2013-05-26 14:41:00,
2013-05-26 10:44:00,64.7,39.2,30.26,NNW,331,3.0,9.0,39,0.00,,SKC,0.00,744.00,VWS V14.01,2013-05-26 14:44:00,
2013-05-26 10:46:00,64.9,38.0,30.26,NW,310,3.0,9.0,37,0.00,,SKC,0.00,747.00,VWS V14.01,2013-05-26 14:46:00,
2013-05-26 10:50:00,65.1,42.1,30.26,NNW,340,7.0,9.0,43,0.00,,SKC,0.00,759.00,VWS V14.01,2013-05-26 14:50:00,
2013-05-26 10:51:00,65.0,38.1,30.26,NW,318,5.0,9.0,37,0.00,,SKC,0.00,759.00,VWS V14.01,2013-05-26 14:51:00,
2013-05-26 10:52:00,64.9,38.0,30.26,NNW,334,6.0,11.0,37,0.00,,SKC,0.00,761.00,VWS V14.01,2013-05-26 14:52:00,
2013-05-26 10:55:00,64.6,37.1,30.26,NNW,345,2.0,11.0,36,0.00,,SKC,0.00,772.00,VWS V14.01,2013-05-26 14:55:00,
2013-05-26 10:56:00,64.8,39.3,30.26,NNW,333,5.0,11.0,39,0.00,,SKC,0.00,773.00,VWS V14.01,2013-05-26 14:56:00,
2013-05-26 10:57:00,64.9,39.4,30.26,NNW,347,8.0,12.0,39,0.00,,SKC,0.00,775.00,VWS V14.01,2013-05-26 14:57:00,
2013-05-26 11:00:00,64.5,34.0,30.26,North,350,6.0,12.0,32,0.00,,SKC,0.00,784.00,VWS V14.01,2013-05-26 15:00:00,
2013-05-26 11:01:00,64.3,36.1,30.25,NNW,329,7.0,7.0,35,0.00,,SKC,0.00,788.00,VWS V14.01,2013-05-26 15:01:00,
2013-05-26 11:02:00,64.3,36.1,30.25,NNW,347,3.0,7.0,35,0.00,,SKC,0.00,788.00,VWS V14.01,2013-05-26 15:02:00,
2013-05-26 11:05:00,65.0,38.1,30.25,NW,315,6.0,9.0,37,0.00,,SKC,0.00,793.00,VWS V14.01,2013-05-26 15:05:00,
2013-05-26 11:06:00,65.1,38.2,30.25,NNW,327,1.0,9.0,37,0.00,,SKC,0.00,795.00,VWS V14.01,2013-05-26 15:06:00,
2013-05-26 11:07:00,65.1,39.5,30.25,SSW,212,1.0,9.0,39,0.00,,SKC,0.00,796.00,VWS V14.01,2013-05-26 15:07:00,
2013-05-26 11:10:00,65.1,38.9,30.25,North,355,3.0,9.0,38,0.00,,SKC,0.00,809.00,VWS V14.01,2013-05-26 15:10:00,
2013-05-26 11:11:00,65.2,40.3,30.25,WNW,284,4.0,9.0,40,0.00,,SKC,0.00,807.00,VWS V14.01,2013-05-26 15:11:00,
2013-05-26 11:12:00,65.3,38.4,30.25,NW,311,4.0,9.0,37,0.00,,SKC,0.00,807.00,VWS V14.01,2013-05-26 15:12:00,
2013-05-26 11:15:00,65.3,37.7,30.25,NW,306,2.0,9.0,36,0.00,,SKC,0.00,817.00,VWS V14.01,2013-05-26 15:15:00,
2013-05-26 11:16:00,65.3,38.4,30.25,NNW,336,3.0,9.0,37,0.00,,SKC,0.00,810.00,VWS V14.01,2013-05-26 15:16:00,
2013-05-26 11:17:00,65.2,37.6,30.25,NW,324,5.0,9.0,36,0.00,,SKC,0.00,810.00,VWS V14.01,2013-05-26 15:17:00,
2013-05-26 11:18:00,65.1,37.5,30.25,NNW,328,1.0,9.0,36,0.00,,SKC,0.00,814.00,VWS V14.01,2013-05-26 15:18:00,
2013-05-26 11:21:00,65.2,40.3,30.25,NNW,336,2.0,9.0,40,0.00,,SKC,0.00,824.00,VWS V14.01,2013-05-26 15:21:00,
2013-05-26 11:22:00,65.2,38.3,30.25,SSW,207,0.0,9.0,37,0.00,,SKC,0.00,833.00,VWS V14.01,2013-05-26 15:22:00,
2013-05-26 11:23:00,65.2,38.3,30.25,SSW,207,0.0,9.0,37,0.00,,SKC,0.00,833.00,VWS V14.01,2013-05-26 15:23:00,
2013-05-26 11:26:00,65.9,40.3,30.25,North,351,0.0,9.0,39,0.00,,SKC,0.00,837.00,VWS V14.01,2013-05-26 15:26:00,
2013-05-26 11:27:00,66.1,39.8,30.25,NNW,345,3.0,9.0,38,0.00,,SKC,0.00,830.00,VWS V14.01,2013-05-26 15:27:00,
2013-05-26 11:28:00,66.4,37.9,30.25,NW,307,3.0,9.0,35,0.00,,SKC,0.00,821.00,VWS V14.01,2013-05-26 15:28:00,
2013-05-26 11:31:00,66.6,39.5,30.25,SSW,206,3.0,9.0,37,0.00,,SKC,0.00,831.00,VWS V14.01,2013-05-26 15:31:00,
2013-05-26 11:32:00,66.5,40.1,30.25,SSW,207,0.0,2.0,38,0.00,,SKC,0.00,846.00,VWS V14.01,2013-05-26 15:32:00,
2013-05-26 11:33:00,66.4,40.7,30.25,SSW,207,1.0,2.0,39,0.00,,SKC,0.00,847.00,VWS V14.01,2013-05-26 15:33:00,
2013-05-26 11:34:00,66.5,43.3,30.25,North,360,2.0,3.0,43,0.00,,SKC,0.00,842.00,VWS V14.01,2013-05-26 15:34:00,
2013-05-26 11:36:00,66.9,39.1,30.25,NW,325,8.0,9.0,36,0.00,,SKC,0.00,840.00,VWS V14.01,2013-05-26 15:36:00,
2013-05-26 11:37:00,66.8,37.6,30.25,NNW,331,8.0,10.0,34,0.00,,SKC,0.00,858.00,VWS V14.01,2013-05-26 15:37:00,
2013-05-26 11:38:00,66.5,37.3,30.25,NNW,343,5.0,10.0,34,0.00,,SKC,0.00,868.00,VWS V14.01,2013-05-26 15:38:00,
2013-05-26 11:40:00,66.2,37.0,30.25,NNW,333,4.0,10.0,34,0.00,,SKC,0.00,863.00,VWS V14.01,2013-05-26 15:40:00,
2013-05-26 11:41:00,65.8,37.4,30.25,NNW,336,0.0,10.0,35,0.00,,SKC,0.00,821.00,VWS V14.01,2013-05-26 15:41:00,
2013-05-26 11:42:00,66.0,36.8,30.25,NNW,336,1.0,10.0,34,0.00,,SKC,0.00,803.00,VWS V14.01,2013-05-26 15:42:00,
2013-05-26 11:43:00,66.5,37.3,30.25,NNW,336,0.0,10.0,34,0.00,,SKC,0.00,867.00,VWS V14.01,2013-05-26 15:43:00,
2013-05-26 11:45:00,66.8,37.6,30.25,North,355,9.0,11.0,34,0.00,,SKC,0.00,877.00,VWS V14.01,2013-05-26 15:45:00,
2013-05-26 11:46:00,66.5,38.0,30.25,North,355,3.0,11.0,35,0.00,,SKC,0.00,874.00,VWS V14.01,2013-05-26 15:46:00,
2013-05-26 11:47:00,66.4,39.4,30.25,North,355,3.0,11.0,37,0.00,,SKC,0.00,877.00,VWS V14.01,2013-05-26 15:47:00,
2013-05-26 11:48:00,66.3,38.6,30.25,NNW,327,0.0,11.0,36,0.00,,SKC,0.00,886.00,VWS V14.01,2013-05-26 15:48:00,
2013-05-26 11:51:00,66.7,38.9,30.25,NNW,348,4.0,11.0,36,0.00,,SKC,0.00,886.00,VWS V14.01,2013-05-26 15:51:00,
2013-05-26 11:52:00,66.7,39.6,30.25,NNW,338,7.0,11.0,37,0.00,,SKC,0.00,886.00,VWS V14.01,2013-05-26 15:52:00,
2013-05-26 11:53:00,66.5,38.8,30.25,North,350,6.0,11.0,36,0.00,,SKC,0.00,877.00,VWS V14.01,2013-05-26 15:53:00,
2013-05-26 11:54:00,66.4,40.7,30.25,NE,46,8.0,11.0,39,0.00,,SKC,0.00,860.00,VWS V14.01,2013-05-26 15:54:00,
2013-05-26 11:56:00,66.3,39.3,30.25,NW,317,6.0,11.0,37,0.00,,SKC,0.00,895.00,VWS V14.01,2013-05-26 15:56:00,
2013-05-26 11:57:00,66.3,39.3,30.25,NW,325,8.0,11.0,37,0.00,,SKC,0.00,893.00,VWS V14.01,2013-05-26 15:57:00,
2013-05-26 11:58:00,66.2,37.8,30.25,NNW,328,4.0,11.0,35,0.00,,SKC,0.00,895.00,VWS V14.01,2013-05-26 15:58:00,
2013-05-26 11:59:00,66.2,38.5,30.25,NNW,342,3.0,11.0,36,0.00,,SKC,0.00,896.00,VWS V14.01,2013-05-26 15:59:00,
2013-05-26 12:02:00,66.9,40.5,30.25,WNW,294,1.0,6.0,38,0.00,,SKC,0.00,902.00,VWS V14.01,2013-05-26 16:02:00,
2013-05-26 12:03:00,66.9,40.5,30.25,NW,319,2.0,6.0,38,0.00,,SKC,0.00,904.00,VWS V14.01,2013-05-26 16:03:00,
2013-05-26 12:04:00,67.0,41.9,30.25,NNW,336,1.0,6.0,40,0.00,,SKC,0.00,905.00,VWS V14.01,2013-05-26 16:04:00,
2013-05-26 12:07:00,66.4,40.7,30.25,WNW,294,3.0,7.0,39,0.00,,SKC,0.00,907.00,VWS V14.01,2013-05-26 16:07:00,
2013-05-26 12:08:00,66.4,38.7,30.25,WNW,295,2.0,7.0,36,0.00,,SKC,0.00,911.00,VWS V14.01,2013-05-26 16:08:00,
2013-05-26 12:09:00,66.4,37.2,30.25,WNW,295,3.0,7.0,34,0.00,,SKC,0.00,911.00,VWS V14.01,2013-05-26 16:09:00,
2013-05-26 12:12:00,66.0,39.0,30.25,North,350,3.0,8.0,37,0.00,,SKC,0.00,914.00,VWS V14.01,2013-05-26 16:12:00,
2013-05-26 12:13:00,66.0,37.6,30.25,North,350,2.0,8.0,35,0.00,,SKC,0.00,914.00,VWS V14.01,2013-05-26 16:13:00,
2013-05-26 12:14:00,66.0,38.3,30.25,North,350,2.0,8.0,36,0.00,,SKC,0.00,916.00,VWS V14.01,2013-05-26 16:14:00,
2013-05-26 12:17:00,66.7,41.0,30.25,WNW,303,3.0,8.0,39,0.00,,SKC,0.00,921.00,VWS V14.01,2013-05-26 16:17:00,
2013-05-26 12:18:00,66.8,39.7,30.25,NW,312,10.0,10.0,37,0.00,,SKC,0.00,921.00,VWS V14.01,2013-05-26 16:18:00,
2013-05-26 12:19:00,66.7,38.2,30.25,NNW,336,2.0,10.0,35,0.00,,SKC,0.00,925.00,VWS V14.01,2013-05-26 16:19:00,
2013-05-26 12:22:00,66.7,38.9,30.25,NNE,27,1.0,11.0,36,0.00,,SKC,0.00,928.00,VWS V14.01,2013-05-26 16:22:00,
2013-05-26 12:23:00,67.0,39.2,30.25,NNE,15,2.0,11.0,36,0.00,,SKC,0.00,928.00,VWS V14.01,2013-05-26 16:23:00,
2013-05-26 12:24:00,67.3,40.2,30.25,North,10,2.0,11.0,37,0.00,,SKC,0.00,928.00,VWS V14.01,2013-05-26 16:24:00,
2013-05-26 12:25:00,67.4,40.2,30.25,NW,325,4.0,11.0,37,0.00,,SKC,0.00,928.00,VWS V14.01,2013-05-26 16:25:00,
2013-05-26 12:27:00,67.3,41.5,30.24,NNW,334,5.0,11.0,39,0.00,,SKC,0.00,932.00,VWS V14.01,2013-05-26 16:27:00,
2013-05-26 12:28:00,67.4,42.3,30.25,North,11,7.0,11.0,40,0.00,,SKC,0.00,932.00,VWS V14.01,2013-05-26 16:28:00,
2013-05-26 12:29:00,67.7,39.8,30.25,NW,315,5.0,11.0,36,0.00,,SKC,0.00,933.00,VWS V14.01,2013-05-26 16:29:00,
2013-05-26 12:30:00,67.8,42.0,30.25,NNW,327,5.0,11.0,39,0.00,,SKC,0.00,935.00,VWS V14.01,2013-05-26 16:30:00,
2013-05-26 12:32:00,68.1,41.6,30.25,NNW,345,5.0,14.0,38,0.00,,SKC,0.00,940.00,VWS V14.01,2013-05-26 16:32:00,
2013-05-26 12:33:00,68.1,42.2,30.25,NNW,338,3.0,14.0,39,0.00,,SKC,0.00,940.00,VWS V14.01,2013-05-26 16:33:00,
2013-05-26 12:34:00,68.1,39.4,30.25,NW,320,4.0,14.0,35,0.00,,SKC,0.00,940.00,VWS V14.01,2013-05-26 16:34:00,
2013-05-26 12:35:00,68.1,41.6,30.25,NNW,342,8.0,14.0,38,0.00,,SKC,0.00,940.00,VWS V14.01,2013-05-26 16:35:00,
2013-05-26 12:37:00,68.1,41.6,30.25,NW,309,6.0,14.0,38,0.00,,SKC,0.00,944.00,VWS V14.01,2013-05-26 16:37:00,
2013-05-26 12:38:00,68.0,40.1,30.24,NW,309,2.0,14.0,36,0.00,,SKC,0.00,944.00,VWS V14.01,2013-05-26 16:38:00,
2013-05-26 12:39:00,68.0,40.1,30.24,NNW,333,1.0,14.0,36,0.00,,SKC,0.00,944.00,VWS V14.01,2013-05-26 16:39:00,
2013-05-26 12:40:00,68.1,40.2,30.24,NNW,337,3.0,14.0,36,0.00,,SKC,0.00,944.00,VWS V14.01,2013-05-26 16:40:00,
2013-05-26 12:43:00,68.1,40.2,30.24,NW,311,0.0,14.0,36,0.00,,SKC,0.00,946.00,VWS V14.01,2013-05-26 16:43:00,
2013-05-26 12:44:00,68.3,41.0,30.24,NW,310,1.0,14.0,37,0.00,,SKC,0.00,947.00,VWS V14.01,2013-05-26 16:44:00,
2013-05-26 12:45:00,68.5,42.6,30.24,NW,309,1.0,14.0,39,0.00,,SKC,0.00,949.00,VWS V14.01,2013-05-26 16:45:00,
2013-05-26 12:48:00,68.6,44.0,30.24,NNW,342,3.0,14.0,41,0.00,,SKC,0.00,949.00,VWS V14.01,2013-05-26 16:48:00,
2013-05-26 12:49:00,68.6,40.6,30.24,North,5,4.0,14.0,36,0.00,,SKC,0.00,949.00,VWS V14.01,2013-05-26 16:49:00,
2013-05-26 12:50:00,68.6,41.3,30.23,NNW,338,7.0,14.0,37,0.00,,SKC,0.00,951.00,VWS V14.01,2013-05-26 16:50:00,
2013-05-26 12:53:00,68.4,39.0,30.23,North,351,3.0,14.0,34,0.00,,SKC,0.00,953.00,VWS V14.01,2013-05-26 16:53:00,
2013-05-26 12:54:00,68.5,41.9,30.23,North,5,3.0,14.0,38,0.00,,SKC,0.00,953.00,VWS V14.01,2013-05-26 16:54:00,
2013-05-26 12:55:00,69.1,44.4,30.23,North,360,2.0,14.0,41,0.00,,SKC,0.00,954.00,VWS V14.01,2013-05-26 16:55:00,
2013-05-26 12:56:00,69.8,43.1,30.23,NNW,336,7.0,14.0,38,0.00,,SKC,0.00,958.00,VWS V14.01,2013-05-26 16:56:00,
2013-05-26 12:58:00,69.6,41.5,30.23,NNW,337,5.0,14.0,36,0.00,,SKC,0.00,954.00,VWS V14.01,2013-05-26 16:58:00,
2013-05-26 13:00:00,69.2,39.7,30.23,NE,39,2.0,14.0,34,0.00,,SKC,0.00,956.00,VWS V14.01,2013-05-26 17:00:00,
2013-05-26 13:01:00,69.2,40.4,30.23,North,11,5.0,5.0,35,0.00,,SKC,0.00,956.00,VWS V14.01,2013-05-26 17:01:00,
2013-05-26 13:03:00,69.2,39.7,30.22,NNE,32,3.0,6.0,34,0.00,,SKC,0.00,960.00,VWS V14.01,2013-05-26 17:03:00,
2013-05-26 13:04:00,69.3,39.8,30.22,NNE,26,3.0,6.0,34,0.00,,SKC,0.00,960.00,VWS V14.01,2013-05-26 17:04:00,
2013-05-26 13:05:00,69.8,41.7,30.22,North,355,2.0,6.0,36,0.00,,SKC,0.00,962.00,VWS V14.01,2013-05-26 17:05:00,
2013-05-26 13:06:00,69.7,38.5,30.22,NNE,21,2.0,6.0,32,0.00,,SKC,0.00,962.00,VWS V14.01,2013-05-26 17:06:00,
2013-05-26 13:08:00,69.8,38.6,30.22,NE,44,6.0,6.0,32,0.00,,SKC,0.00,960.00,VWS V14.01,2013-05-26 17:08:00,
2013-05-26 13:09:00,70.0,38.8,30.22,ENE,68,3.0,7.0,32,0.00,,SKC,0.00,960.00,VWS V14.01,2013-05-26 17:09:00,
2013-05-26 13:10:00,70.1,38.9,30.22,ENE,59,0.0,7.0,32,0.00,,SKC,0.00,965.00,VWS V14.01,2013-05-26 17:10:00,
2013-05-26 13:11:00,70.0,38.8,30.22,ENE,59,0.0,7.0,32,0.00,,SKC,0.00,965.00,VWS V14.01,2013-05-26 17:11:00,
2013-05-26 13:14:00,68.9,38.6,30.21,SSE,149,2.0,7.0,33,0.00,,SKC,0.00,972.00,VWS V14.01,2013-05-26 17:14:00,
2013-05-26 13:15:00,68.8,39.3,30.21,SE,128,2.0,7.0,34,0.00,,SKC,0.00,969.00,VWS V14.01,2013-05-26 17:15:00,
2013-05-26 13:16:00,69.1,39.6,30.21,SE,126,0.0,7.0,34,0.00,,SKC,0.00,940.00,VWS V14.01,2013-05-26 17:16:00,
2013-05-26 13:19:00,69.2,39.7,30.21,SE,132,2.0,7.0,34,0.00,,SKC,0.00,977.00,VWS V14.01,2013-05-26 17:19:00,
2013-05-26 13:21:00,69.3,40.5,30.21,East,93,6.0,7.0,35,0.00,,SKC,0.00,954.00,VWS V14.01,2013-05-26 17:21:00,
2013-05-26 13:22:00,69.6,38.5,30.21,East,92,0.0,7.0,32,0.00,,SKC,0.00,930.00,VWS V14.01,2013-05-26 17:22:00,
2013-05-26 13:24:00,71.2,40.7,30.21,East,92,0.0,7.0,33,0.00,,SKC,0.00,972.00,VWS V14.01,2013-05-26 17:24:00,
2013-05-26 13:26:00,72.4,45.4,30.21,East,92,0.0,7.0,38,0.00,,SKC,0.00,954.00,VWS V14.01,2013-05-26 17:26:00,
2013-05-26 13:27:00,72.8,41.3,30.21,East,92,1.0,7.0,32,0.00,,SKC,0.00,976.00,VWS V14.01,2013-05-26 17:27:00,
2013-05-26 13:29:00,72.2,41.5,30.20,SSE,157,2.0,7.0,33,0.00,,SKC,0.00,963.00,VWS V14.01,2013-05-26 17:29:00,
2013-05-26 13:31:00,71.7,41.9,30.20,NNW,336,4.0,7.0,34,0.00,,SKC,0.00,972.00,VWS V14.01,2013-05-26 17:31:00,
2013-05-26 13:32:00,71.5,43.2,30.20,SSE,150,4.0,6.0,36,0.00,,SKC,0.00,969.00,VWS V14.01,2013-05-26 17:32:00,
2013-05-26 13:35:00,69.5,39.9,30.21,SW,216,3.0,10.0,34,0.00,,SKC,0.00,967.00,VWS V14.01,2013-05-26 17:35:00,
2013-05-26 13:36:00,68.9,37.8,30.21,SSW,213,0.0,10.0,32,0.00,,SKC,0.00,962.00,VWS V14.01,2013-05-26 17:36:00,
2013-05-26 13:37:00,68.8,40.8,30.21,SSW,213,3.0,10.0,36,0.00,,SKC,0.00,960.00,VWS V14.01,2013-05-26 17:37:00,
2013-05-26 13:40:00,70.3,42.1,30.20,NNW,333,0.0,10.0,36,0.00,,SKC,0.00,956.00,VWS V14.01,2013-05-26 17:40:00,
2013-05-26 13:41:00,70.7,40.2,30.20,SSW,199,6.0,10.0,33,0.00,,SKC,0.00,970.00,VWS V14.01,2013-05-26 17:41:00,
2013-05-26 13:42:00,70.7,40.2,30.20,SSW,210,5.0,10.0,33,0.00,,SKC,0.00,970.00,VWS V14.01,2013-05-26 17:42:00,
2013-05-26 13:45:00,70.1,40.5,30.20,North,355,3.0,10.0,34,0.00,,SKC,0.00,967.00,VWS V14.01,2013-05-26 17:45:00,
2013-05-26 13:46:00,70.2,39.8,30.20,North,5,2.0,10.0,33,0.00,,SKC,0.00,970.00,VWS V14.01,2013-05-26 17:46:00,
2013-05-26 13:47:00,70.4,40.7,30.20,North,5,1.0,10.0,34,0.00,,SKC,0.00,967.00,VWS V14.01,2013-05-26 17:47:00,
2013-05-26 13:48:00,70.6,43.8,30.20,North,360,0.0,10.0,38,0.00,,SKC,0.00,967.00,VWS V14.01,2013-05-26 17:48:00,
2013-05-26 13:50:00,71.3,40.7,30.20,North,5,0.0,10.0,33,0.00,,SKC,0.00,969.00,VWS V14.01,2013-05-26 17:50:00,
2013-05-26 13:51:00,71.8,42.7,30.20,SSW,206,1.0,10.0,35,0.00,,SKC,0.00,969.00,VWS V14.01,2013-05-26 17:51:00,
2013-05-26 13:52:00,71.8,43.4,30.20,SW,221,1.0,10.0,36,0.00,,SKC,0.00,969.00,VWS V14.01,2013-05-26 17:52:00,
2013-05-26 13:53:00,72.1,43.0,30.20,NNW,344,4.0,10.0,35,0.00,,SKC,0.00,967.00,VWS V14.01,2013-05-26 17:53:00,
2013-05-26 13:55:00,72.6,41.1,30.20,NW,315,5.0,10.0,32,0.00,,SKC,0.00,969.00,VWS V14.01,2013-05-26 17:55:00,
2013-05-26 13:56:00,72.5,41.8,30.20,NNW,333,4.0,10.0,33,0.00,,SKC,0.00,967.00,VWS V14.01,2013-05-26 17:56:00,
2013-05-26 13:57:00,72.4,41.7,30.20,NW,312,7.0,10.0,33,0.00,,SKC,0.00,967.00,VWS V14.01,2013-05-26 17:57:00,
2013-05-26 13:58:00,72.1,44.4,30.20,WNW,285,3.0,10.0,37,0.00,,SKC,0.00,969.00,VWS V14.01,2013-05-26 17:58:00,
2013-05-26 14:00:00,71.3,41.5,30.20,NNW,342,6.0,10.0,34,0.00,,SKC,0.00,962.00,VWS V14.01,2013-05-26 18:00:00,
2013-05-26 14:02:00,71.1,39.8,30.20,NNW,344,6.0,6.0,32,0.00,,SKC,0.00,963.00,VWS V14.01,2013-05-26 18:02:00,
2013-05-26 14:03:00,71.0,42.0,30.20,North,360,6.0,7.0,35,0.00,,SKC,0.00,962.00,VWS V14.01,2013-05-26 18:03:00,
2013-05-26 14:06:00,71.6,44.0,30.19,NNW,347,0.0,8.0,37,0.00,,SKC,0.00,958.00,VWS V14.01,2013-05-26 18:06:00,
2013-05-26 14:07:00,72.3,44.6,30.19,North,355,2.0,8.0,37,0.00,,SKC,0.00,956.00,VWS V14.01,2013-05-26 18:07:00,
2013-05-26 14:08:00,72.4,40.1,30.20,North,355,2.0,8.0,31,0.00,,SKC,0.00,956.00,VWS V14.01,2013-05-26 18:08:00,
2013-05-26 14:11:00,73.6,42.8,30.19,NW,321,0.0,8.0,33,0.00,,SKC,0.00,958.00,VWS V14.01,2013-05-26 18:11:00,
2013-05-26 14:12:00,73.6,42.8,30.19,NW,321,1.0,8.0,33,0.00,,SKC,0.00,954.00,VWS V14.01,2013-05-26 18:12:00,
2013-05-26 14:13:00,73.7,42.8,30.19,NW,321,0.0,8.0,33,0.00,,SKC,0.00,958.00,VWS V14.01,2013-05-26 18:13:00,
2013-05-26 14:17:00,73.7,41.2,30.19,North,355,4.0,8.0,31,0.00,,SKC,0.00,954.00,VWS V14.01,2013-05-26 18:17:00,
2013-05-26 14:18:00,73.3,42.5,30.19,NNW,334,6.0,8.0,33,0.00,,SKC,0.00,956.00,VWS V14.01,2013-05-26 18:18:00,
2013-05-26 14:19:00,73.0,40.6,30.19,NNW,327,3.0,8.0,31,0.00,,SKC,0.00,954.00,VWS V14.01,2013-05-26 18:19:00,
2013-05-26 14:22:00,73.0,43.8,30.19,NNW,348,1.0,8.0,35,0.00,,SKC,0.00,953.00,VWS V14.01,2013-05-26 18:22:00,
2013-05-26 14:23:00,73.1,45.3,30.19,NNW,348,3.0,8.0,37,0.00,,SKC,0.00,942.00,VWS V14.01,2013-05-26 18:23:00,
2013-05-26 14:24:00,73.3,45.5,30.19,NNW,348,3.0,8.0,37,0.00,,SKC,0.00,944.00,VWS V14.01,2013-05-26 18:24:00,
2013-05-26 14:28:00,73.1,43.8,30.19,WNW,298,1.0,8.0,35,0.00,,SKC,0.00,939.00,VWS V14.01,2013-05-26 18:28:00,
2013-05-26 14:29:00,73.0,43.0,30.19,WNW,297,1.0,8.0,34,0.00,,SKC,0.00,940.00,VWS V14.01,2013-05-26 18:29:00,
2013-05-26 14:33:00,73.2,43.9,30.19,NW,313,0.0,1.0,35,0.00,,SKC,0.00,925.00,VWS V14.01,2013-05-26 18:33:00,
2013-05-26 14:34:00,73.2,43.2,30.19,WNW,292,0.0,2.0,34,0.00,,SKC,0.00,926.00,VWS V14.01,2013-05-26 18:34:00,
2013-05-26 14:38:00,72.0,41.3,30.19,South,188,3.0,6.0,33,0.00,,SKC,0.00,909.00,VWS V14.01,2013-05-26 18:38:00,
2013-05-26 14:39:00,71.6,41.0,30.19,SSE,148,1.0,6.0,33,0.00,,SKC,0.00,882.00,VWS V14.01,2013-05-26 18:39:00,
2013-05-26 14:43:00,71.4,40.8,30.18,SW,216,10.0,10.0,33,0.00,,SKC,0.00,937.00,VWS V14.01,2013-05-26 18:43:00,
2013-05-26 14:44:00,71.0,40.5,30.18,SW,217,5.0,10.0,33,0.00,,SKC,0.00,946.00,VWS V14.01,2013-05-26 18:44:00,
2013-05-26 14:48:00,71.5,41.7,30.18,SW,217,1.0,10.0,34,0.00,,SKC,0.00,875.00,VWS V14.01,2013-05-26 18:48:00,
2013-05-26 14:49:00,71.5,42.4,30.18,SW,217,2.0,10.0,35,0.00,,SKC,0.00,888.00,VWS V14.01,2013-05-26 18:49:00,
2013-05-26 14:53:00,72.0,40.6,30.18,WNW,291,0.0,10.0,32,0.00,,SKC,0.00,863.00,VWS V14.01,2013-05-26 18:53:00,
2013-05-26 14:54:00,72.2,43.1,30.18,NNW,333,8.0,10.0,35,0.00,,SKC,0.00,863.00,VWS V14.01,2013-05-26 18:54:00,
2013-05-26 14:58:00,72.8,42.0,30.18,North,350,0.0,10.0,33,0.00,,SKC,0.00,735.00,VWS V14.01,2013-05-26 18:58:00,
2013-05-26 14:59:00,73.0,42.2,30.18,North,350,0.0,10.0,33,0.00,,SKC,0.00,752.00,VWS V14.01,2013-05-26 18:59:00,
2013-05-26 15:00:00,73.3,44.0,30.18,West,276,2.0,10.0,35,0.00,,SKC,0.00,793.00,VWS V14.01,2013-05-26 19:00:00,
2013-05-26 15:04:00,71.8,40.4,30.18,SSW,203,1.0,7.0,32,0.00,,SKC,0.00,847.00,VWS V14.01,2013-05-26 19:04:00,
2013-05-26 15:05:00,71.6,40.2,30.18,ESE,123,5.0,7.0,32,0.00,,SKC,0.00,863.00,VWS V14.01,2013-05-26 19:05:00,
2013-05-26 15:09:00,71.5,40.9,30.18,ESE,122,4.0,7.0,33,0.00,,SKC,0.00,831.00,VWS V14.01,2013-05-26 19:09:00,
2013-05-26 15:10:00,71.6,41.8,30.18,SSE,151,2.0,7.0,34,0.00,,SKC,0.00,831.00,VWS V14.01,2013-05-26 19:10:00,
2013-05-26 15:11:00,71.8,40.4,30.18,SE,138,4.0,8.0,32,0.00,,SKC,0.00,877.00,VWS V14.01,2013-05-26 19:11:00,
2013-05-26 15:14:00,71.9,41.3,30.18,NNW,341,10.0,11.0,33,0.00,,SKC,0.00,823.00,VWS V14.01,2013-05-26 19:14:00,
2013-05-26 15:15:00,72.0,41.3,30.18,NNW,348,6.0,11.0,33,0.00,,SKC,0.00,860.00,VWS V14.01,2013-05-26 19:15:00,
2013-05-26 15:16:00,72.0,41.3,30.18,NNW,343,4.0,11.0,33,0.00,,SKC,0.00,867.00,VWS V14.01,2013-05-26 19:16:00,
2013-05-26 15:19:00,72.6,41.1,30.18,NW,320,3.0,11.0,32,0.00,,SKC,0.00,863.00,VWS V14.01,2013-05-26 19:19:00,
2013-05-26 15:20:00,72.6,41.1,30.18,NW,309,1.0,11.0,32,0.00,,SKC,0.00,863.00,VWS V14.01,2013-05-26 19:20:00,
2013-05-26 15:21:00,72.7,40.3,30.18,NNW,340,5.0,11.0,31,0.00,,SKC,0.00,814.00,VWS V14.01,2013-05-26 19:21:00,
2013-05-26 15:24:00,72.8,41.3,30.18,North,355,1.0,11.0,32,0.00,,SKC,0.00,846.00,VWS V14.01,2013-05-26 19:24:00,
2013-05-26 15:25:00,73.0,40.6,30.18,WNW,294,0.0,11.0,31,0.00,,SKC,0.00,856.00,VWS V14.01,2013-05-26 19:25:00,
2013-05-26 15:26:00,73.1,43.8,30.18,WNW,289,2.0,11.0,35,0.00,,SKC,0.00,830.00,VWS V14.01,2013-05-26 19:26:00,
2013-05-26 15:27:00,73.4,41.8,30.18,North,355,1.0,11.0,32,0.00,,SKC,0.00,851.00,VWS V14.01,2013-05-26 19:27:00,
2013-05-26 15:29:00,73.6,39.4,30.18,NNW,341,2.0,11.0,29,0.00,,SKC,0.00,828.00,VWS V14.01,2013-05-26 19:29:00,
2013-05-26 15:30:00,73.5,41.0,30.18,WSW,256,3.0,11.0,31,0.00,,SKC,0.00,828.00,VWS V14.01,2013-05-26 19:30:00,
2013-05-26 15:31:00,73.1,37.2,30.17,SW,228,2.0,2.0,27,0.00,,SKC,0.00,798.00,VWS V14.01,2013-05-26 19:31:00,
2013-05-26 15:32:00,73.0,38.9,30.17,SW,228,2.0,3.0,29,0.00,,SKC,0.00,798.00,VWS V14.01,2013-05-26 19:32:00,
2013-05-26 15:35:00,72.6,41.1,30.17,SW,231,3.0,3.0,32,0.00,,SKC,0.00,817.00,VWS V14.01,2013-05-26 19:35:00,
2013-05-26 15:37:00,73.0,39.8,30.17,NNW,327,1.0,3.0,30,0.00,,SKC,0.00,810.00,VWS V14.01,2013-05-26 19:37:00,
2013-05-26 15:40:00,74.5,41.1,30.17,SW,214,5.0,5.0,30,0.00,,SKC,0.00,810.00,VWS V14.01,2013-05-26 19:40:00,
2013-05-26 15:42:00,74.3,44.1,30.17,WSW,250,0.0,7.0,34,0.00,,SKC,0.00,809.00,VWS V14.01,2013-05-26 19:42:00,
2013-05-26 15:43:00,74.5,44.3,30.17,North,349,4.0,7.0,34,0.00,,SKC,0.00,798.00,VWS V14.01,2013-05-26 19:43:00,
2013-05-26 15:45:00,74.7,40.4,30.17,NNW,348,1.0,7.0,29,0.00,,SKC,0.00,782.00,VWS V14.01,2013-05-26 19:45:00,
2013-05-26 15:46:00,74.5,40.2,30.17,NNW,348,0.0,7.0,29,0.00,,SKC,0.00,795.00,VWS V14.01,2013-05-26 19:46:00,
2013-05-26 15:47:00,74.7,41.2,30.17,NNW,346,3.0,7.0,30,0.00,,SKC,0.00,770.00,VWS V14.01,2013-05-26 19:47:00,
2013-05-26 15:48:00,74.8,41.3,30.17,NNW,342,6.0,7.0,30,0.00,,SKC,0.00,802.00,VWS V14.01,2013-05-26 19:48:00,
2013-05-26 15:50:00,74.5,41.1,30.17,NNW,334,1.0,12.0,30,0.00,,SKC,0.00,796.00,VWS V14.01,2013-05-26 19:50:00,
2013-05-26 15:51:00,74.3,38.2,30.17,NW,304,2.0,12.0,27,0.00,,SKC,0.00,791.00,VWS V14.01,2013-05-26 19:51:00,
2013-05-26 15:52:00,74.0,37.9,30.17,WNW,290,3.0,12.0,27,0.00,,SKC,0.00,772.00,VWS V14.01,2013-05-26 19:52:00,
2013-05-26 15:53:00,74.0,40.6,30.17,WNW,292,0.0,12.0,30,0.00,,SKC,0.00,786.00,VWS V14.01,2013-05-26 19:53:00,
2013-05-26 15:55:00,74.2,40.8,30.16,NNW,344,1.0,12.0,30,0.00,,SKC,0.00,742.00,VWS V14.01,2013-05-26 19:55:00,
2013-05-26 15:56:00,74.3,41.7,30.16,NNW,332,7.0,12.0,31,0.00,,SKC,0.00,728.00,VWS V14.01,2013-05-26 19:56:00,
2013-05-26 15:57:00,74.4,40.1,30.16,NNW,336,2.0,12.0,29,0.00,,SKC,0.00,710.00,VWS V14.01,2013-05-26 19:57:00,
2013-05-26 15:58:00,74.4,40.1,30.16,WNW,298,3.0,12.0,29,0.00,,SKC,0.00,761.00,VWS V14.01,2013-05-26 19:58:00,
2013-05-26 16:00:00,74.5,41.9,30.17,WNW,284,1.0,12.0,31,0.00,,SKC,0.00,729.00,VWS V14.01,2013-05-26 20:00:00,
2013-05-26 16:01:00,74.5,40.2,30.16,WNW,290,1.0,3.0,29,0.00,,SKC,0.00,689.00,VWS V14.01,2013-05-26 20:01:00,
2013-05-26 16:02:00,74.5,40.2,30.16,WNW,290,3.0,4.0,29,0.00,,SKC,0.00,677.00,VWS V14.01,2013-05-26 20:02:00,
2013-05-26 16:03:00,74.4,40.1,30.16,WNW,288,1.0,4.0,29,0.00,,SKC,0.00,693.00,VWS V14.01,2013-05-26 20:03:00,
2013-05-26 16:05:00,73.8,39.6,30.16,WSW,250,0.0,4.0,29,0.00,,SKC,0.00,691.00,VWS V14.01,2013-05-26 20:05:00,
2013-05-26 16:07:00,73.8,42.1,30.16,WNW,301,3.0,7.0,32,0.00,,SKC,0.00,747.00,VWS V14.01,2013-05-26 20:07:00,
2013-05-26 16:08:00,73.8,39.6,30.16,West,277,0.0,7.0,29,0.00,,SKC,0.00,700.00,VWS V14.01,2013-05-26 20:08:00,
2013-05-26 16:10:00,73.9,41.4,30.16,West,281,1.0,8.0,31,0.00,,SKC,0.00,703.00,VWS V14.01,2013-05-26 20:10:00,
2013-05-26 16:12:00,74.0,39.8,30.16,NW,323,4.0,8.0,29,0.00,,SKC,0.00,712.00,VWS V14.01,2013-05-26 20:12:00,
2013-05-26 16:13:00,74.0,38.9,30.16,NW,308,3.0,8.0,28,0.00,,SKC,0.00,679.00,VWS V14.01,2013-05-26 20:13:00,
2013-05-26 16:14:00,73.9,41.4,30.16,WNW,292,2.0,8.0,31,0.00,,SKC,0.00,645.00,VWS V14.01,2013-05-26 20:14:00,
2013-05-26 16:15:00,73.8,41.3,30.16,WNW,293,2.0,8.0,31,0.00,,SKC,0.00,617.00,VWS V14.01,2013-05-26 20:15:00,
2013-05-26 16:17:00,74.0,40.6,30.16,WSW,243,5.0,8.0,30,0.00,,SKC,0.00,629.00,VWS V14.01,2013-05-26 20:17:00,
2013-05-26 16:18:00,73.9,39.7,30.16,SW,224,2.0,8.0,29,0.00,,SKC,0.00,645.00,VWS V14.01,2013-05-26 20:18:00,
2013-05-26 16:19:00,73.5,38.4,30.16,NW,311,3.0,8.0,28,0.00,,SKC,0.00,640.00,VWS V14.01,2013-05-26 20:19:00,
2013-05-26 16:21:00,73.2,37.2,30.16,West,263,0.0,8.0,27,0.00,,SKC,0.00,606.00,VWS V14.01,2013-05-26 20:21:00,
2013-05-26 16:22:00,73.3,39.2,30.16,SSW,203,5.0,8.0,29,0.00,,SKC,0.00,640.00,VWS V14.01,2013-05-26 20:22:00,
2013-05-26 16:23:00,73.2,39.1,30.16,SSW,198,2.0,8.0,29,0.00,,SKC,0.00,629.00,VWS V14.01,2013-05-26 20:23:00,
2013-05-26 16:24:00,73.1,40.7,30.16,WSW,239,0.0,8.0,31,0.00,,SKC,0.00,633.00,VWS V14.01,2013-05-26 20:24:00,
2013-05-26 16:26:00,73.2,43.2,30.16,SW,214,0.0,8.0,34,0.00,,SKC,0.00,598.00,VWS V14.01,2013-05-26 20:26:00,
2013-05-26 16:27:00,73.4,39.2,30.16,NW,317,1.0,8.0,29,0.00,,SKC,0.00,608.00,VWS V14.01,2013-05-26 20:27:00,
2013-05-26 16:28:00,73.4,40.1,30.16,South,182,0.0,8.0,30,0.00,,SKC,0.00,619.00,VWS V14.01,2013-05-26 20:28:00,
2013-05-26 16:29:00,73.7,42.0,30.16,SSW,205,2.0,8.0,32,0.00,,SKC,0.00,652.00,VWS V14.01,2013-05-26 20:29:00,
2013-05-26 16:31:00,73.9,42.2,30.16,SSW,210,0.0,1.0,32,0.00,,SKC,0.00,656.00,VWS V14.01,2013-05-26 20:31:00,
2013-05-26 16:32:00,74.1,40.7,30.16,NNW,333,2.0,2.0,30,0.00,,SKC,0.00,656.00,VWS V14.01,2013-05-26 20:32:00,
2013-05-26 16:33:00,74.3,40.0,30.16,NNW,341,0.0,4.0,29,0.00,,SKC,0.00,603.00,VWS V14.01,2013-05-26 20:33:00,
2013-05-26 16:34:00,74.4,40.1,30.16,NNW,341,0.0,4.0,29,0.00,,SKC,0.00,582.00,VWS V14.01,2013-05-26 20:34:00,
2013-05-26 16:36:00,74.9,42.3,30.16,North,350,0.0,4.0,31,0.00,,SKC,0.00,652.00,VWS V14.01,2013-05-26 20:36:00,
2013-05-26 16:37:00,75.0,41.5,30.16,North,350,1.0,4.0,30,0.00,,SKC,0.00,635.00,VWS V14.01,2013-05-26 20:37:00,
2013-05-26 16:38:00,75.2,39.9,30.16,WNW,298,5.0,6.0,28,0.00,,SKC,0.00,605.00,VWS V14.01,2013-05-26 20:38:00,
2013-05-26 16:39:00,75.2,39.0,30.16,NW,306,3.0,10.0,27,0.00,,SKC,0.00,552.00,VWS V14.01,2013-05-26 20:39:00,
2013-05-26 16:40:00,75.1,38.9,30.16,NW,309,2.0,10.0,27,0.00,,SKC,0.00,496.00,VWS V14.01,2013-05-26 20:40:00,
2013-05-26 16:41:00,74.8,40.5,30.16,NNW,336,3.0,10.0,29,0.00,,SKC,0.00,573.00,VWS V14.01,2013-05-26 20:41:00,
2013-05-26 16:42:00,74.6,42.8,30.16,NNW,336,2.0,10.0,32,0.00,,SKC,0.00,378.00,VWS V14.01,2013-05-26 20:42:00,
2013-05-26 16:43:00,74.5,41.1,30.16,NW,309,0.0,10.0,30,0.00,,SKC,0.00,378.00,VWS V14.01,2013-05-26 20:43:00,
2013-05-26 16:44:00,74.5,41.1,30.16,WSW,247,3.0,10.0,30,0.00,,SKC,0.00,497.00,VWS V14.01,2013-05-26 20:44:00,
2013-05-26 16:45:00,74.2,40.8,30.16,South,188,5.0,13.0,30,0.00,,SKC,0.00,512.00,VWS V14.01,2013-05-26 20:45:00,
2013-05-26 16:46:00,73.9,42.2,30.15,NNW,334,4.0,13.0,32,0.00,,SKC,0.00,448.00,VWS V14.01,2013-05-26 20:46:00,
2013-05-26 16:48:00,74.0,41.5,30.16,West,281,1.0,13.0,31,0.00,,SKC,0.00,376.00,VWS V14.01,2013-05-26 20:48:00,
2013-05-26 16:49:00,73.9,40.5,30.16,West,269,1.0,13.0,30,0.00,,SKC,0.00,559.00,VWS V14.01,2013-05-26 20:49:00,
2013-05-26 16:50:00,73.9,40.5,30.16,West,269,0.0,13.0,30,0.00,,SKC,0.00,468.00,VWS V14.01,2013-05-26 20:50:00,
2013-05-26 16:51:00,73.7,38.6,30.16,WNW,302,2.0,13.0,28,0.00,,SKC,0.00,381.00,VWS V14.01,2013-05-26 20:51:00,
2013-05-26 16:53:00,73.8,40.5,30.16,NW,324,5.0,13.0,30,0.00,,SKC,0.00,450.00,VWS V14.01,2013-05-26 20:53:00,
2013-05-26 16:54:00,73.9,42.2,30.16,NW,325,4.0,13.0,32,0.00,,SKC,0.00,450.00,VWS V14.01,2013-05-26 20:54:00,
2013-05-26 16:55:00,74.0,42.3,30.16,North,349,5.0,13.0,32,0.00,,SKC,0.00,450.00,VWS V14.01,2013-05-26 20:55:00,
2013-05-26 16:56:00,74.1,44.7,30.16,NNW,333,5.0,13.0,35,0.00,,SKC,0.00,292.00,VWS V14.01,2013-05-26 20:56:00,
2013-05-26 16:58:00,74.2,41.7,30.16,NNW,338,0.0,13.0,31,0.00,,SKC,0.00,343.00,VWS V14.01,2013-05-26 20:58:00,
2013-05-26 16:59:00,74.3,43.4,30.16,NNW,338,1.0,13.0,33,0.00,,SKC,0.00,343.00,VWS V14.01,2013-05-26 20:59:00,
2013-05-26 17:00:00,74.3,40.9,30.16,SSW,192,6.0,13.0,30,0.00,,SKC,0.00,343.00,VWS V14.01,2013-05-26 21:00:00,
2013-05-26 17:02:00,74.1,40.7,30.15,NW,322,0.0,2.0,30,0.00,,SKC,0.00,404.00,VWS V14.01,2013-05-26 21:02:00,
2013-05-26 17:03:00,74.3,42.6,30.15,NNW,343,4.0,4.0,32,0.00,,SKC,0.00,559.00,VWS V14.01,2013-05-26 21:03:00,
2013-05-26 17:04:00,74.3,40.9,30.15,WNW,302,2.0,4.0,30,0.00,,SKC,0.00,559.00,VWS V14.01,2013-05-26 21:04:00,
2013-05-26 17:05:00,74.3,40.0,30.15,SW,234,1.0,5.0,29,0.00,,SKC,0.00,559.00,VWS V14.01,2013-05-26 21:05:00,
2013-05-26 17:07:00,74.2,41.7,30.16,NNW,331,3.0,7.0,31,0.00,,SKC,0.00,548.00,VWS V14.01,2013-05-26 21:07:00,
2013-05-26 17:08:00,74.2,40.8,30.15,NNW,338,3.0,7.0,30,0.00,,SKC,0.00,566.00,VWS V14.01,2013-05-26 21:08:00,
2013-05-26 17:09:00,74.2,39.0,30.15,NNW,331,4.0,7.0,28,0.00,,SKC,0.00,587.00,VWS V14.01,2013-05-26 21:09:00,
2013-05-26 17:10:00,74.1,41.6,30.15,NNW,338,0.0,7.0,31,0.00,,SKC,0.00,540.00,VWS V14.01,2013-05-26 21:10:00,
2013-05-26 17:11:00,74.2,44.1,30.15,NNW,340,3.0,7.0,34,0.00,,SKC,0.00,540.00,VWS V14.01,2013-05-26 21:11:00,
2013-05-26 17:12:00,74.4,41.0,30.15,West,276,0.0,7.0,30,0.00,,SKC,0.00,538.00,VWS V14.01,2013-05-26 21:12:00,
2013-05-26 17:13:00,74.2,40.8,30.15,WNW,285,1.0,7.0,30,0.00,,SKC,0.00,506.00,VWS V14.01,2013-05-26 21:13:00,
2013-05-26 17:14:00,74.3,41.7,30.15,NW,321,2.0,7.0,31,0.00,,SKC,0.00,506.00,VWS V14.01,2013-05-26 21:14:00,
2013-05-26 17:15:00,74.4,41.0,30.15,NW,313,2.0,7.0,30,0.00,,SKC,0.00,538.00,VWS V14.01,2013-05-26 21:15:00,
2013-05-26 17:16:00,74.4,43.5,30.15,NW,313,2.0,7.0,33,0.00,,SKC,0.00,524.00,VWS V14.01,2013-05-26 21:16:00,
2013-05-26 17:17:00,74.5,41.9,30.15,NNW,342,6.0,7.0,31,0.00,,SKC,0.00,547.00,VWS V14.01,2013-05-26 21:17:00,
2013-05-26 17:18:00,74.5,41.9,30.15,NNW,342,3.0,7.0,31,0.00,,SKC,0.00,520.00,VWS V14.01,2013-05-26 21:18:00,
2013-05-26 17:19:00,74.5,41.1,30.15,NNW,342,1.0,7.0,30,0.00,,SKC,0.00,510.00,VWS V14.01,2013-05-26 21:19:00,
2013-05-26 17:20:00,74.4,40.1,30.15,SSW,194,3.0,7.0,29,0.00,,SKC,0.00,480.00,VWS V14.01,2013-05-26 21:20:00,
2013-05-26 17:21:00,74.4,40.1,30.15,SSW,194,0.0,7.0,29,0.00,,SKC,0.00,450.00,VWS V14.01,2013-05-26 21:21:00,
2013-05-26 17:22:00,74.2,39.9,30.15,SSW,194,2.0,7.0,29,0.00,,SKC,0.00,450.00,VWS V14.01,2013-05-26 21:22:00,
2013-05-26 17:23:00,74.3,43.4,30.15,NNW,335,2.0,7.0,33,0.00,,SKC,0.00,415.00,VWS V14.01,2013-05-26 21:23:00,
2013-05-26 17:25:00,74.4,42.7,30.15,NNW,336,0.0,7.0,32,0.00,,SKC,0.00,448.00,VWS V14.01,2013-05-26 21:25:00,
2013-05-26 17:26:00,74.6,42.8,30.15,NNW,336,2.0,7.0,32,0.00,,SKC,0.00,459.00,VWS V14.01,2013-05-26 21:26:00,
2013-05-26 17:27:00,74.8,45.3,30.16,NNW,335,2.0,7.0,35,0.00,,SKC,0.00,401.00,VWS V14.01,2013-05-26 21:27:00,
2013-05-26 17:29:00,74.7,40.4,30.15,NW,326,8.0,8.0,29,0.00,,SKC,0.00,373.00,VWS V14.01,2013-05-26 21:29:00,
2013-05-26 17:30:00,74.6,41.2,30.16,NNW,332,5.0,8.0,30,0.00,,SKC,0.00,357.00,VWS V14.01,2013-05-26 21:30:00,
2013-05-26 17:31:00,74.6,41.2,30.16,SW,215,3.0,8.0,30,0.00,,SKC,0.00,362.00,VWS V14.01,2013-05-26 21:31:00,
2013-05-26 17:32:00,74.4,39.2,30.15,North,355,1.0,6.0,28,0.00,,SKC,0.00,330.00,VWS V14.01,2013-05-26 21:32:00,
2013-05-26 17:34:00,74.3,40.9,30.15,West,275,5.0,6.0,30,0.00,,SKC,0.00,250.00,VWS V14.01,2013-05-26 21:34:00,
2013-05-26 17:36:00,74.3,39.1,30.15,WNW,284,0.0,6.0,28,0.00,,SKC,0.00,250.00,VWS V14.01,2013-05-26 21:36:00,
2013-05-26 17:38:00,74.5,42.7,30.15,WNW,290,1.0,6.0,32,0.00,,SKC,0.00,316.00,VWS V14.01,2013-05-26 21:38:00,
2013-05-26 17:39:00,74.4,38.3,30.15,NNW,333,6.0,6.0,27,0.00,,SKC,0.00,316.00,VWS V14.01,2013-05-26 21:39:00,
2013-05-26 17:41:00,74.3,39.1,30.15,NNW,347,2.0,7.0,28,0.00,,SKC,0.00,380.00,VWS V14.01,2013-05-26 21:41:00,
2013-05-26 17:42:00,74.2,39.0,30.15,NNW,347,0.0,7.0,28,0.00,,SKC,0.00,380.00,VWS V14.01,2013-05-26 21:42:00,
2013-05-26 17:43:00,74.2,39.0,30.16,NNW,347,0.0,7.0,28,0.00,,SKC,0.00,406.00,VWS V14.01,2013-05-26 21:43:00,
2013-05-26 17:44:00,74.3,41.7,30.16,NNW,347,0.0,7.0,31,0.00,,SKC,0.00,381.00,VWS V14.01,2013-05-26 21:44:00,
2013-05-26 17:47:00,74.3,40.9,30.15,NNW,348,1.0,7.0,30,0.00,,SKC,0.00,369.00,VWS V14.01,2013-05-26 21:47:00,
2013-05-26 17:48:00,74.2,43.3,30.16,North,5,9.0,9.0,33,0.00,,SKC,0.00,322.00,VWS V14.01,2013-05-26 21:48:00,
2013-05-26 17:49:00,74.2,39.9,30.16,NW,311,5.0,9.0,29,0.00,,SKC,0.00,322.00,VWS V14.01,2013-05-26 21:49:00,
2013-05-26 17:52:00,74.0,39.8,30.16,North,355,3.0,9.0,29,0.00,,SKC,0.00,316.00,VWS V14.01,2013-05-26 21:52:00,
2013-05-26 17:54:00,73.8,37.8,30.16,North,351,3.0,9.0,27,0.00,,SKC,0.00,338.00,VWS V14.01,2013-05-26 21:54:00,
2013-05-26 17:55:00,73.7,38.6,30.16,North,355,2.0,9.0,28,0.00,,SKC,0.00,334.00,VWS V14.01,2013-05-26 21:55:00,
2013-05-26 17:57:00,73.5,38.4,30.16,North,355,4.0,9.0,28,0.00,,SKC,0.00,364.00,VWS V14.01,2013-05-26 21:57:00,
2013-05-26 17:59:00,73.4,40.1,30.16,NNW,338,5.0,9.0,30,0.00,,SKC,0.00,387.00,VWS V14.01,2013-05-26 21:59:00,
2013-05-26 18:00:00,73.4,40.1,30.16,NW,308,7.0,9.0,30,0.00,,SKC,0.00,360.00,VWS V14.01,2013-05-26 22:00:00,
2013-05-26 18:02:00,73.4,38.3,30.16,NNW,339,5.0,8.0,28,0.00,,SKC,0.00,373.00,VWS V14.01,2013-05-26 22:02:00,
2013-05-26 18:05:00,73.3,38.3,30.16,NNW,328,5.0,8.0,28,0.00,,SKC,0.00,355.00,VWS V14.01,2013-05-26 22:05:00,
2013-05-26 18:07:00,73.3,38.3,30.16,NNW,329,3.0,8.0,28,0.00,,SKC,0.00,359.00,VWS V14.01,2013-05-26 22:07:00,
2013-05-26 18:08:00,73.3,38.3,30.16,NNW,329,0.0,8.0,28,0.00,,SKC,0.00,348.00,VWS V14.01,2013-05-26 22:08:00,
2013-05-26 18:10:00,73.4,40.1,30.16,NW,322,5.0,8.0,30,0.00,,SKC,0.00,346.00,VWS V14.01,2013-05-26 22:10:00,
2013-05-26 18:12:00,73.4,41.0,30.16,West,277,2.0,8.0,31,0.00,,SKC,0.00,323.00,VWS V14.01,2013-05-26 22:12:00,
2013-05-26 18:13:00,73.4,41.0,30.16,WNW,296,7.0,8.0,31,0.00,,SKC,0.00,304.00,VWS V14.01,2013-05-26 22:13:00,
2013-05-26 18:15:00,73.4,40.1,30.16,West,277,1.0,8.0,30,0.00,,SKC,0.00,327.00,VWS V14.01,2013-05-26 22:15:00,
2013-05-26 18:16:00,73.4,40.1,30.16,NW,309,1.0,8.0,30,0.00,,SKC,0.00,292.00,VWS V14.01,2013-05-26 22:16:00,
2013-05-26 18:17:00,73.2,38.2,30.16,West,268,2.0,8.0,28,0.00,,SKC,0.00,260.00,VWS V14.01,2013-05-26 22:17:00,
2013-05-26 18:18:00,73.1,39.0,30.16,NW,321,2.0,8.0,29,0.00,,SKC,0.00,279.00,VWS V14.01,2013-05-26 22:18:00,
2013-05-26 18:20:00,73.0,38.9,30.16,NW,316,0.0,8.0,29,0.00,,SKC,0.00,288.00,VWS V14.01,2013-05-26 22:20:00,
2013-05-26 18:21:00,72.9,37.9,30.16,NW,314,0.0,8.0,28,0.00,,SKC,0.00,279.00,VWS V14.01,2013-05-26 22:21:00,
2013-05-26 18:22:00,72.9,38.8,30.16,NNW,347,1.0,8.0,29,0.00,,SKC,0.00,297.00,VWS V14.01,2013-05-26 22:22:00,
2013-05-26 18:23:00,72.9,38.8,30.16,NNW,346,1.0,8.0,29,0.00,,SKC,0.00,287.00,VWS V14.01,2013-05-26 22:23:00,
2013-05-26 18:24:00,72.8,41.3,30.16,NNW,329,1.0,8.0,32,0.00,,SKC,0.00,279.00,VWS V14.01,2013-05-26 22:24:00,
2013-05-26 18:25:00,72.8,39.6,30.16,WNW,298,1.0,8.0,30,0.00,,SKC,0.00,301.00,VWS V14.01,2013-05-26 22:25:00,
2013-05-26 18:26:00,72.7,40.3,30.16,WNW,293,3.0,8.0,31,0.00,,SKC,0.00,320.00,VWS V14.01,2013-05-26 22:26:00,
2013-05-26 18:28:00,72.7,39.5,30.16,WNW,288,0.0,8.0,30,0.00,,SKC,0.00,322.00,VWS V14.01,2013-05-26 22:28:00,
2013-05-26 18:29:00,72.6,40.3,30.16,WNW,298,3.0,8.0,31,0.00,,SKC,0.00,306.00,VWS V14.01,2013-05-26 22:29:00,
2013-05-26 18:30:00,72.6,38.5,30.16,WNW,300,0.0,8.0,29,0.00,,SKC,0.00,295.00,VWS V14.01,2013-05-26 22:30:00,
2013-05-26 18:32:00,72.8,40.4,30.16,WNW,300,1.0,1.0,31,0.00,,SKC,0.00,362.00,VWS V14.01,2013-05-26 22:32:00,
2013-05-26 18:33:00,72.9,40.5,30.16,NNW,329,2.0,5.0,31,0.00,,SKC,0.00,355.00,VWS V14.01,2013-05-26 22:33:00,
2013-05-26 18:35:00,73.0,38.9,30.16,WNW,302,0.0,5.0,29,0.00,,SKC,0.00,299.00,VWS V14.01,2013-05-26 22:35:00,
2013-05-26 18:37:00,72.9,38.8,30.16,NNE,12,5.0,7.0,29,0.00,,SKC,0.00,311.00,VWS V14.01,2013-05-26 22:37:00,
2013-05-26 18:38:00,72.9,38.8,30.16,NW,315,1.0,7.0,29,0.00,,SKC,0.00,353.00,VWS V14.01,2013-05-26 22:38:00,
2013-05-26 18:39:00,72.9,38.8,30.16,NW,315,1.0,7.0,29,0.00,,SKC,0.00,353.00,VWS V14.01,2013-05-26 22:39:00,
2013-05-26 18:40:00,72.9,39.7,30.17,SW,214,1.0,7.0,30,0.00,,SKC,0.00,309.00,VWS V14.01,2013-05-26 22:40:00,
2013-05-26 18:42:00,72.8,38.7,30.16,NW,319,4.0,7.0,29,0.00,,SKC,0.00,311.00,VWS V14.01,2013-05-26 22:42:00,
2013-05-26 18:43:00,72.9,37.0,30.16,NW,311,3.0,7.0,27,0.00,,SKC,0.00,311.00,VWS V14.01,2013-05-26 22:43:00,
2013-05-26 18:44:00,72.9,38.8,30.16,NW,311,0.0,7.0,29,0.00,,SKC,0.00,279.00,VWS V14.01,2013-05-26 22:44:00,
2013-05-26 18:46:00,73.0,38.9,30.16,NW,313,0.0,7.0,29,0.00,,SKC,0.00,290.00,VWS V14.01,2013-05-26 22:46:00,
2013-05-26 18:48:00,73.0,38.9,30.16,WNW,298,0.0,7.0,29,0.00,,SKC,0.00,285.00,VWS V14.01,2013-05-26 22:48:00,
2013-05-26 18:49:00,72.8,37.8,30.16,SW,236,1.0,7.0,28,0.00,,SKC,0.00,288.00,VWS V14.01,2013-05-26 22:49:00,
2013-05-26 18:51:00,72.6,37.7,30.16,West,270,1.0,7.0,28,0.00,,SKC,0.00,316.00,VWS V14.01,2013-05-26 22:51:00,
2013-05-26 18:52:00,72.6,36.7,30.16,West,270,0.0,7.0,27,0.00,,SKC,0.00,320.00,VWS V14.01,2013-05-26 22:52:00,
2013-05-26 18:53:00,72.6,38.5,30.16,West,277,0.0,7.0,29,0.00,,SKC,0.00,320.00,VWS V14.01,2013-05-26 22:53:00,
2013-05-26 18:54:00,72.6,38.5,30.16,WNW,284,0.0,7.0,29,0.00,,SKC,0.00,299.00,VWS V14.01,2013-05-26 22:54:00,
2013-05-26 18:56:00,72.7,38.6,30.16,NNW,331,2.0,7.0,29,0.00,,SKC,0.00,311.00,VWS V14.01,2013-05-26 22:56:00,
2013-05-26 18:57:00,72.7,40.3,30.16,NW,311,3.0,7.0,31,0.00,,SKC,0.00,311.00,VWS V14.01,2013-05-26 22:57:00,
2013-05-26 18:58:00,72.8,39.6,30.16,NNW,334,3.0,7.0,30,0.00,,SKC,0.00,299.00,VWS V14.01,2013-05-26 22:58:00,
2013-05-26 18:59:00,72.8,39.6,30.16,NNW,334,2.0,7.0,30,0.00,,SKC,0.00,294.00,VWS V14.01,2013-05-26 22:59:00,
2013-05-26 19:00:00,72.7,40.3,30.16,NNW,334,1.0,7.0,31,0.00,,SKC,0.00,288.00,VWS V14.01,2013-05-26 23:00:00,
2013-05-26 19:01:00,72.6,38.5,30.16,NNW,329,0.0,1.0,29,0.00,,SKC,0.00,258.00,VWS V14.01,2013-05-26 23:01:00,
2013-05-26 19:02:00,72.5,37.6,30.16,NW,323,0.0,3.0,28,0.00,,SKC,0.00,225.00,VWS V14.01,2013-05-26 23:02:00,
2013-05-26 19:03:00,72.5,38.5,30.16,NW,323,0.0,3.0,29,0.00,,SKC,0.00,223.00,VWS V14.01,2013-05-26 23:03:00,
2013-05-26 19:04:00,72.5,38.5,30.16,NW,322,3.0,3.0,29,0.00,,SKC,0.00,123.00,VWS V14.01,2013-05-26 23:04:00,
2013-05-26 19:05:00,72.5,37.6,30.16,NW,322,1.0,3.0,28,0.00,,SKC,0.00,98.00,VWS V14.01,2013-05-26 23:05:00,
2013-05-26 19:06:00,72.5,38.5,30.16,NW,322,0.0,3.0,29,0.00,,SKC,0.00,130.00,VWS V14.01,2013-05-26 23:06:00,
2013-05-26 19:07:00,72.4,37.5,30.16,WNW,299,2.0,3.0,28,0.00,,SKC,0.00,190.00,VWS V14.01,2013-05-26 23:07:00,
2013-05-26 19:08:00,72.2,37.3,30.16,WNW,299,0.0,3.0,28,0.00,,SKC,0.00,190.00,VWS V14.01,2013-05-26 23:08:00,
2013-05-26 19:09:00,72.1,39.0,30.16,NW,324,1.0,3.0,30,0.00,,SKC,0.00,190.00,VWS V14.01,2013-05-26 23:09:00,
2013-05-26 19:10:00,72.0,38.9,30.16,NW,322,0.0,3.0,30,0.00,,SKC,0.00,167.00,VWS V14.01,2013-05-26 23:10:00,
2013-05-26 19:11:00,71.9,38.0,30.16,WNW,291,4.0,5.0,29,0.00,,SKC,0.00,171.00,VWS V14.01,2013-05-26 23:11:00,
2013-05-26 19:13:00,71.8,37.9,30.16,West,275,0.0,6.0,29,0.00,,SKC,0.00,185.00,VWS V14.01,2013-05-26 23:13:00,
2013-05-26 19:14:00,71.7,38.6,30.17,West,275,0.0,6.0,30,0.00,,SKC,0.00,192.00,VWS V14.01,2013-05-26 23:14:00,
2013-05-26 19:15:00,71.8,37.9,30.17,NW,324,1.0,6.0,29,0.00,,SKC,0.00,188.00,VWS V14.01,2013-05-26 23:15:00,
2013-05-26 19:16:00,71.8,37.9,30.17,NW,310,0.0,6.0,29,0.00,,SKC,0.00,176.00,VWS V14.01,2013-05-26 23:16:00,
2013-05-26 19:18:00,71.8,37.9,30.17,NW,306,1.0,6.0,29,0.00,,SKC,0.00,183.00,VWS V14.01,2013-05-26 23:18:00,
2013-05-26 19:19:00,71.7,36.9,30.17,NW,306,3.0,6.0,28,0.00,,SKC,0.00,171.00,VWS V14.01,2013-05-26 23:19:00,
2013-05-26 19:20:00,71.7,37.8,30.17,NW,306,3.0,6.0,29,0.00,,SKC,0.00,171.00,VWS V14.01,2013-05-26 23:20:00,
2013-05-26 19:21:00,71.7,36.9,30.17,NW,306,0.0,6.0,28,0.00,,SKC,0.00,155.00,VWS V14.01,2013-05-26 23:21:00,
2013-05-26 19:23:00,71.6,36.8,30.17,WNW,299,0.0,8.0,28,0.00,,SKC,0.00,113.00,VWS V14.01,2013-05-26 23:23:00,
2013-05-26 19:24:00,71.5,38.5,30.17,WNW,299,0.0,8.0,30,0.00,,SKC,0.00,113.00,VWS V14.01,2013-05-26 23:24:00,
2013-05-26 19:26:00,71.4,37.5,30.17,WNW,288,0.0,8.0,29,0.00,,SKC,0.00,121.00,VWS V14.01,2013-05-26 23:26:00,
2013-05-26 19:27:00,71.3,36.5,30.17,WNW,288,2.0,8.0,28,0.00,,SKC,0.00,109.00,VWS V14.01,2013-05-26 23:27:00,
2013-05-26 19:29:00,71.2,38.2,30.17,WNW,295,0.0,8.0,30,0.00,,SKC,0.00,77.00,VWS V14.01,2013-05-26 23:29:00,
2013-05-26 19:30:00,71.1,38.1,30.17,WNW,302,1.0,8.0,30,0.00,,SKC,0.00,81.00,VWS V14.01,2013-05-26 23:30:00,
2013-05-26 19:31:00,71.0,37.2,30.17,NW,321,2.0,8.0,29,0.00,,SKC,0.00,76.00,VWS V14.01,2013-05-26 23:31:00,
2013-05-26 19:32:00,71.0,38.0,30.17,NW,321,0.0,0.0,30,0.00,,SKC,0.00,102.00,VWS V14.01,2013-05-26 23:32:00,
2013-05-26 19:34:00,70.9,38.0,30.17,NW,307,1.0,4.0,30,0.00,,SKC,0.00,113.00,VWS V14.01,2013-05-26 23:34:00,
2013-05-26 19:35:00,70.8,37.9,30.17,NW,307,0.0,4.0,30,0.00,,SKC,0.00,113.00,VWS V14.01,2013-05-26 23:35:00,
2013-05-26 19:36:00,70.8,37.9,30.17,WNW,290,0.0,4.0,30,0.00,,SKC,0.00,113.00,VWS V14.01,2013-05-26 23:36:00,
2013-05-26 19:37:00,70.7,37.8,30.17,NW,312,3.0,4.0,30,0.00,,SKC,0.00,109.00,VWS V14.01,2013-05-26 23:37:00,
2013-05-26 19:39:00,70.6,37.7,30.17,WNW,290,0.0,5.0,30,0.00,,SKC,0.00,109.00,VWS V14.01,2013-05-26 23:39:00,
2013-05-26 19:40:00,70.5,37.6,30.17,NW,306,3.0,5.0,30,0.00,,SKC,0.00,105.00,VWS V14.01,2013-05-26 23:40:00,
2013-05-26 19:41:00,70.5,37.6,30.17,NW,304,2.0,5.0,30,0.00,,SKC,0.00,105.00,VWS V14.01,2013-05-26 23:41:00,
2013-05-26 19:42:00,70.4,37.5,30.17,NW,304,0.0,5.0,30,0.00,,SKC,0.00,102.00,VWS V14.01,2013-05-26 23:42:00,
2013-05-26 19:45:00,70.3,37.4,30.17,NW,306,1.0,5.0,30,0.00,,SKC,0.00,86.00,VWS V14.01,2013-05-26 23:45:00,
2013-05-26 19:46:00,70.3,39.1,30.17,NW,306,1.0,5.0,32,0.00,,SKC,0.00,76.00,VWS V14.01,2013-05-26 23:46:00,
2013-05-26 19:47:00,70.2,38.2,30.17,WNW,288,4.0,5.0,31,0.00,,SKC,0.00,58.00,VWS V14.01,2013-05-26 23:47:00,
2013-05-26 19:50:00,70.0,38.8,30.17,WNW,296,1.0,5.0,32,0.00,,SKC,0.00,26.00,VWS V14.01,2013-05-26 23:50:00,
2013-05-26 19:51:00,69.9,38.7,30.17,WNW,296,1.0,5.0,32,0.00,,SKC,0.00,25.00,VWS V14.01,2013-05-26 23:51:00,
2013-05-26 19:52:00,69.9,38.7,30.17,WNW,296,1.0,5.0,32,0.00,,SKC,0.00,23.00,VWS V14.01,2013-05-26 23:52:00,
2013-05-26 19:55:00,69.7,39.3,30.17,WNW,298,1.0,5.0,33,0.00,,SKC,0.00,21.00,VWS V14.01,2013-05-26 23:55:00,
2013-05-26 19:57:00,69.4,39.1,30.17,WNW,298,1.0,5.0,33,0.00,,SKC,0.00,18.00,VWS V14.01,2013-05-26 23:57:00,
2013-05-26 20:00:00,69.0,38.7,30.17,NW,304,2.0,5.0,33,0.00,,SKC,0.00,16.00,VWS V14.01,2013-05-27 00:00:00,
2013-05-26 20:01:00,69.0,38.7,30.17,NW,304,1.0,5.0,33,0.00,,SKC,0.00,16.00,VWS V14.01,2013-05-27 00:01:00,
2013-05-26 20:02:00,68.8,39.3,30.18,NW,304,2.0,2.0,34,0.00,,SKC,0.00,16.00,VWS V14.01,2013-05-27 00:02:00,
2013-05-26 20:06:00,68.3,38.9,30.18,NW,304,1.0,2.0,34,0.00,,SKC,0.00,14.00,VWS V14.01,2013-05-27 00:06:00,
2013-05-26 20:07:00,68.1,39.4,30.18,NW,304,2.0,3.0,35,0.00,,SKC,0.00,14.00,VWS V14.01,2013-05-27 00:07:00,
2013-05-26 20:08:00,68.0,39.3,30.17,NW,315,2.0,4.0,35,0.00,,SKC,0.00,12.00,VWS V14.01,2013-05-27 00:08:00,
2013-05-26 20:11:00,67.6,39.0,30.17,NW,317,1.0,4.0,35,0.00,,SKC,0.00,12.00,VWS V14.01,2013-05-27 00:11:00,
2013-05-26 20:12:00,67.4,38.8,30.18,NW,317,3.0,4.0,35,0.00,,SKC,0.00,12.00,VWS V14.01,2013-05-27 00:12:00,
2013-05-26 20:13:00,67.2,38.7,30.18,NW,317,2.0,4.0,35,0.00,,SKC,0.00,11.00,VWS V14.01,2013-05-27 00:13:00,
2013-05-26 20:16:00,66.8,39.0,30.18,NNW,328,1.0,4.0,36,0.00,,SKC,0.00,11.00,VWS V14.01,2013-05-27 00:16:00,
2013-05-26 20:17:00,66.8,39.7,30.18,NNW,327,0.0,4.0,37,0.00,,SKC,0.00,11.00,VWS V14.01,2013-05-27 00:17:00,
2013-05-26 20:19:00,66.6,39.5,30.18,NNW,327,1.0,4.0,37,0.00,,SKC,0.00,9.00,VWS V14.01,2013-05-27 00:19:00,
2013-05-26 20:21:00,66.2,39.2,30.18,NNW,327,1.0,4.0,37,0.00,,SKC,0.00,7.00,VWS V14.01,2013-05-27 00:21:00,
2013-05-26 20:22:00,66.2,39.9,30.18,NNW,327,1.0,4.0,38,0.00,,SKC,0.00,7.00,VWS V14.01,2013-05-27 00:22:00,
2013-05-26 20:23:00,66.1,39.8,30.18,NW,315,3.0,5.0,38,0.00,,SKC,0.00,7.00,VWS V14.01,2013-05-27 00:23:00,
2013-05-26 20:24:00,66.0,39.7,30.18,NW,315,1.0,5.0,38,0.00,,SKC,0.00,7.00,VWS V14.01,2013-05-27 00:24:00,
2013-05-26 20:26:00,65.8,39.5,30.18,NW,315,2.0,5.0,38,0.00,,SKC,0.00,5.00,VWS V14.01,2013-05-27 00:26:00,
2013-05-26 20:27:00,65.7,39.4,30.18,NW,315,0.0,5.0,38,0.00,,SKC,0.00,5.00,VWS V14.01,2013-05-27 00:27:00,
2013-05-26 20:28:00,65.6,39.3,30.18,NW,315,0.0,5.0,38,0.00,,SKC,0.00,0.00,VWS V14.01,2013-05-27 00:28:00,
2013-05-26 20:29:00,65.6,40.0,30.18,NW,315,0.0,5.0,39,0.00,,SKC,0.00,0.00,VWS V14.01,2013-05-27 00:29:00,
2013-05-26 20:31:00,65.4,40.5,30.18,NW,315,0.0,0.0,40,0.00,,SKC,0.00,0.00,VWS V14.01,2013-05-27 00:31:00,
2013-05-26 20:32:00,65.4,40.5,30.18,NW,315,0.0,0.0,40,0.00,,SKC,0.00,0.00,VWS V14.01,2013-05-27 00:32:00,
2013-05-26 20:33:00,65.4,39.8,30.18,NW,315,0.0,0.0,39,0.00,,SKC,0.00,0.00,VWS V14.01,2013-05-27 00:33:00,
2013-05-26 20:34:00,65.3,40.4,30.18,NW,315,0.0,0.0,40,0.00,,SKC,0.00,0.00,VWS V14.01,2013-05-27 00:34:00,
2013-05-26 20:37:00,65.2,39.6,30.18,NW,315,0.0,0.0,39,0.00,,SKC,0.00,0.00,VWS V14.01,2013-05-27 00:37:00,
2013-05-26 20:38:00,65.1,38.9,30.18,NW,315,0.0,0.0,38,0.00,,SKC,0.00,0.00,VWS V14.01,2013-05-27 00:38:00,
2013-05-26 20:39:00,65.0,39.5,30.18,NW,315,0.0,0.0,39,0.00,,SKC,0.00,0.00,VWS V14.01,2013-05-27 00:39:00,
2013-05-26 20:42:00,65.0,39.5,30.18,NW,315,0.0,0.0,39,0.00,,SKC,0.00,0.00,VWS V14.01,2013-05-27 00:42:00,
2013-05-26 20:43:00,65.0,38.8,30.18,NW,315,1.0,1.0,38,0.00,,SKC,0.00,0.00,VWS V14.01,2013-05-27 00:43:00,
2013-05-26 20:45:00,64.8,37.2,30.18,NW,315,1.0,1.0,36,0.00,,SKC,0.00,0.00,VWS V14.01,2013-05-27 00:45:00,
2013-05-26 20:47:00,64.8,37.2,30.18,NW,315,1.0,2.0,36,0.00,,SKC,0.00,0.00,VWS V14.01,2013-05-27 00:47:00,
2013-05-26 20:48:00,64.7,37.2,30.18,NW,315,0.0,2.0,36,0.00,,SKC,0.00,0.00,VWS V14.01,2013-05-27 00:48:00,
2013-05-26 20:51:00,64.6,37.1,30.18,NW,315,0.0,2.0,36,0.00,,SKC,0.00,0.00,VWS V14.01,2013-05-27 00:51:00,
2013-05-26 20:52:00,64.5,37.0,30.18,NW,315,0.0,2.0,36,0.00,,SKC,0.00,0.00,VWS V14.01,2013-05-27 00:52:00,
2013-05-26 20:53:00,64.5,37.7,30.18,NW,315,0.0,2.0,37,0.00,,SKC,0.00,0.00,VWS V14.01,2013-05-27 00:53:00,
2013-05-26 20:56:00,64.5,37.7,30.18,NW,315,0.0,2.0,37,0.00,,SKC,0.00,0.00,VWS V14.01,2013-05-27 00:56:00,
2013-05-26 20:57:00,64.4,36.9,30.18,NW,315,0.0,2.0,36,0.00,,SKC,0.00,0.00,VWS V14.01,2013-05-27 00:57:00,
2013-05-26 20:58:00,64.4,37.6,30.18,NW,315,0.0,2.0,37,0.00,,SKC,0.00,0.00,VWS V14.01,2013-05-27 00:58:00,
2013-05-26 20:59:00,64.4,37.6,30.18,NW,315,0.0,2.0,37,0.00,,SKC,0.00,0.00,VWS V14.01,2013-05-27 00:59:00,
2013-05-26 21:01:00,64.4,38.3,30.18,NW,315,0.0,2.0,38,0.00,,SKC,0.00,0.00,VWS V14.01,2013-05-27 01:01:00,
2013-05-26 21:02:00,64.4,38.3,30.19,NW,315,0.0,0.0,38,0.00,,SKC,0.00,0.00,VWS V14.01,2013-05-27 01:02:00,
2013-05-26 21:03:00,64.4,38.9,30.19,NW,315,0.0,1.0,39,0.00,,SKC,0.00,0.00,VWS V14.01,2013-05-27 01:03:00,
2013-05-26 21:04:00,64.4,38.3,30.19,NW,315,0.0,1.0,38,0.00,,SKC,0.00,0.00,VWS V14.01,2013-05-27 01:04:00,
2013-05-26 21:06:00,64.4,37.6,30.19,NW,315,0.0,2.0,37,0.00,,SKC,0.00,0.00,VWS V14.01,2013-05-27 01:06:00,
2013-05-26 21:08:00,64.3,38.2,30.19,NW,315,1.0,2.0,38,0.00,,SKC,0.00,0.00,VWS V14.01,2013-05-27 01:08:00,
2013-05-26 21:09:00,64.3,37.5,30.19,NW,315,3.0,3.0,37,0.00,,SKC,0.00,0.00,VWS V14.01,2013-05-27 01:09:00,
2013-05-26 21:11:00,64.2,37.4,30.19,NW,315,2.0,3.0,37,0.00,,SKC,0.00,0.00,VWS V14.01,2013-05-27 01:11:00,
2013-05-26 21:13:00,64.1,37.3,30.19,NW,315,1.0,3.0,37,0.00,,SKC,0.00,0.00,VWS V14.01,2013-05-27 01:13:00,
2013-05-26 21:14:00,64.1,37.3,30.19,NW,315,2.0,3.0,37,0.00,,SKC,0.00,0.00,VWS V14.01,2013-05-27 01:14:00,
2013-05-26 21:16:00,64.1,37.3,30.19,NW,315,1.0,3.0,37,0.00,,SKC,0.00,0.00,VWS V14.01,2013-05-27 01:16:00,
2013-05-26 21:18:00,64.0,37.9,30.19,NW,315,2.0,3.0,38,0.00,,SKC,0.00,0.00,VWS V14.01,2013-05-27 01:18:00,
2013-05-26 21:19:00,64.0,37.9,30.19,NW,315,2.0,3.0,38,0.00,,SKC,0.00,0.00,VWS V14.01,2013-05-27 01:19:00,
2013-05-26 21:21:00,64.0,37.9,30.19,NW,320,3.0,4.0,38,0.00,,SKC,0.00,0.00,VWS V14.01,2013-05-27 01:21:00,
2013-05-26 21:23:00,63.9,37.1,30.19,NNW,332,5.0,5.0,37,0.00,,SKC,0.00,0.00,VWS V14.01,2013-05-27 01:23:00,
2013-05-26 21:24:00,63.8,37.0,30.19,NNW,333,2.0,5.0,37,0.00,,SKC,0.00,0.00,VWS V14.01,2013-05-27 01:24:00,
2013-05-26 21:25:00,63.8,37.7,30.19,NNW,333,2.0,5.0,38,0.00,,SKC,0.00,0.00,VWS V14.01,2013-05-27 01:25:00,
2013-05-26 21:26:00,63.8,37.0,30.19,NNW,335,2.0,5.0,37,0.00,,SKC,0.00,0.00,VWS V14.01,2013-05-27 01:26:00,
2013-05-26 21:28:00,63.7,37.0,30.19,NNW,335,1.0,5.0,37,0.00,,SKC,0.00,0.00,VWS V14.01,2013-05-27 01:28:00,
2013-05-26 21:29:00,63.7,37.6,30.19,NNW,335,1.0,5.0,38,0.00,,SKC,0.00,0.00,VWS V14.01,2013-05-27 01:29:00,
2013-05-26 21:30:00,63.7,37.6,30.19,NNW,333,2.0,5.0,38,0.00,,SKC,0.00,0.00,VWS V14.01,2013-05-27 01:30:00,
2013-05-26 21:31:00,63.6,38.9,30.19,NNW,333,3.0,3.0,40,0.00,,SKC,0.00,0.00,VWS V14.01,2013-05-27 01:31:00,
2013-05-26 21:34:00,63.5,38.8,30.19,NNW,333,0.0,3.0,40,0.00,,SKC,0.00,0.00,VWS V14.01,2013-05-27 01:34:00,
2013-05-26 21:35:00,63.4,38.0,30.19,NNW,333,0.0,3.0,39,0.00,,SKC,0.00,0.00,VWS V14.01,2013-05-27 01:35:00,
2013-05-26 21:36:00,63.4,38.0,30.19,NNW,333,0.0,3.0,39,0.00,,SKC,0.00,0.00,VWS V14.01,2013-05-27 01:36:00,
2013-05-26 21:39:00,63.3,37.3,30.19,NNW,333,0.0,3.0,38,0.00,,SKC,0.00,0.00,VWS V14.01,2013-05-27 01:39:00,
2013-05-26 21:40:00,63.3,37.3,30.19,NNW,333,0.0,3.0,38,0.00,,SKC,0.00,0.00,VWS V14.01,2013-05-27 01:40:00,
2013-05-26 21:42:00,63.3,37.3,30.19,NNW,333,0.0,3.0,38,0.00,,SKC,0.00,0.00,VWS V14.01,2013-05-27 01:42:00,
2013-05-26 21:44:00,63.3,37.3,30.20,NNW,333,0.0,3.0,38,0.00,,SKC,0.00,0.00,VWS V14.01,2013-05-27 01:44:00,
2013-05-26 21:45:00,63.3,37.3,30.20,NNW,333,1.0,3.0,38,0.00,,SKC,0.00,0.00,VWS V14.01,2013-05-27 01:45:00,
2013-05-26 21:47:00,63.3,37.3,30.20,NNW,333,5.0,5.0,38,0.00,,SKC,0.00,0.00,VWS V14.01,2013-05-27 01:47:00,
2013-05-26 21:49:00,63.3,37.3,30.20,NNW,333,2.0,5.0,38,0.00,,SKC,0.00,0.00,VWS V14.01,2013-05-27 01:49:00,
2013-05-26 21:50:00,63.4,37.4,30.20,NNW,333,2.0,5.0,38,0.00,,SKC,0.00,0.00,VWS V14.01,2013-05-27 01:50:00,
2013-05-26 21:51:00,63.3,37.3,30.20,NNW,333,3.0,5.0,38,0.00,,SKC,0.00,0.00,VWS V14.01,2013-05-27 01:51:00,
2013-05-26 21:52:00,63.4,37.4,30.20,NNW,333,3.0,5.0,38,0.00,,SKC,0.00,0.00,VWS V14.01,2013-05-27 01:52:00,
2013-05-26 21:55:00,63.4,37.4,30.20,NW,322,3.0,5.0,38,0.00,,SKC,0.00,0.00,VWS V14.01,2013-05-27 01:55:00,
2013-05-26 21:56:00,63.4,38.0,30.20,NW,322,3.0,5.0,39,0.00,,SKC,0.00,0.00,VWS V14.01,2013-05-27 01:56:00,
2013-05-26 21:57:00,63.3,38.0,30.20,NW,322,3.0,5.0,39,0.00,,SKC,0.00,0.00,VWS V14.01,2013-05-27 01:57:00,
2013-05-26 22:00:00,63.2,37.9,30.20,NW,322,2.0,5.0,39,0.00,,SKC,0.00,0.00,VWS V14.01,2013-05-27 02:00:00,
2013-05-26 22:01:00,63.2,38.5,30.20,NW,323,4.0,5.0,40,0.00,,SKC,0.00,0.00,VWS V14.01,2013-05-27 02:01:00,
2013-05-26 22:02:00,63.2,37.9,30.20,NW,323,1.0,3.0,39,0.00,,SKC,0.00,0.00,VWS V14.01,2013-05-27 02:02:00,
2013-05-26 22:05:00,63.1,37.8,30.20,NNW,331,4.0,5.0,39,0.00,,SKC,0.00,0.00,VWS V14.01,2013-05-27 02:05:00,
2013-05-26 22:06:00,63.0,37.7,30.20,NNW,331,2.0,5.0,39,0.00,,SKC,0.00,0.00,VWS V14.01,2013-05-27 02:06:00,
2013-05-26 22:07:00,63.0,38.3,30.20,NNW,331,3.0,5.0,40,0.00,,SKC,0.00,0.00,VWS V14.01,2013-05-27 02:07:00,
2013-05-26 22:10:00,62.8,37.5,30.20,NNW,342,3.0,7.0,39,0.00,,SKC,0.00,0.00,VWS V14.01,2013-05-27 02:10:00,
2013-05-26 22:11:00,62.7,37.4,30.20,NNW,346,4.0,7.0,39,0.00,,SKC,0.00,0.00,VWS V14.01,2013-05-27 02:11:00,
2013-05-26 22:12:00,62.7,37.4,30.20,NNW,337,3.0,7.0,39,0.00,,SKC,0.00,0.00,VWS V14.01,2013-05-27 02:12:00,
2013-05-26 22:15:00,62.6,37.3,30.20,NNW,331,3.0,7.0,39,0.00,,SKC,0.00,0.00,VWS V14.01,2013-05-27 02:15:00,
2013-05-26 22:16:00,62.7,37.4,30.20,NNW,331,2.0,7.0,39,0.00,,SKC,0.00,0.00,VWS V14.01,2013-05-27 02:16:00,
2013-05-26 22:17:00,62.6,37.3,30.20,NNW,331,2.0,7.0,39,0.00,,SKC,0.00,0.00,VWS V14.01,2013-05-27 02:17:00,
2013-05-26 22:20:00,62.5,37.9,30.20,NNW,331,4.0,7.0,40,0.00,,SKC,0.00,0.00,VWS V14.01,2013-05-27 02:20:00,
2013-05-26 22:21:00,62.5,37.9,30.20,NNW,331,3.0,7.0,40,0.00,,SKC,0.00,0.00,VWS V14.01,2013-05-27 02:21:00,
2013-05-26 22:22:00,62.4,37.8,30.20,NNW,331,2.0,7.0,40,0.00,,SKC,0.00,0.00,VWS V14.01,2013-05-27 02:22:00,
2013-05-26 22:23:00,62.4,37.1,30.20,NW,309,3.0,9.0,39,0.00,,SKC,0.00,0.00,VWS V14.01,2013-05-27 02:23:00,
2013-05-26 22:26:00,62.1,40.5,30.20,NW,317,0.0,9.0,45,0.00,,SKC,0.00,0.00,VWS V14.01,2013-05-27 02:26:00,
2013-05-26 22:27:00,61.8,39.1,30.21,NW,325,1.0,9.0,43,0.00,,SKC,0.00,0.00,VWS V14.01,2013-05-27 02:27:00,
2013-05-26 22:28:00,61.6,40.1,30.21,NW,325,0.0,9.0,45,0.00,,SKC,0.00,0.00,VWS V14.01,2013-05-27 02:28:00,
2013-05-26 22:31:00,60.8,39.3,30.21,NW,325,0.0,9.0,45,0.00,,SKC,0.00,0.00,VWS V14.01,2013-05-27 02:31:00,
2013-05-26 22:32:00,60.6,39.7,30.21,NNW,333,0.0,2.0,46,0.00,,SKC,0.00,0.00,VWS V14.01,2013-05-27 02:32:00,
2013-05-26 22:33:00,60.4,40.6,30.21,NW,319,2.0,2.0,48,0.00,,SKC,0.00,0.00,VWS V14.01,2013-05-27 02:33:00,
2013-05-26 22:36:00,59.8,40.6,30.21,NW,315,0.0,2.0,49,0.00,,SKC,0.00,0.00,VWS V14.01,2013-05-27 02:36:00,
2013-05-26 22:37:00,59.7,41.6,30.21,NW,315,0.0,2.0,51,0.00,,SKC,0.00,0.00,VWS V14.01,2013-05-27 02:37:00,
2013-05-26 22:38:00,59.7,42.6,30.21,NW,315,0.0,2.0,53,0.00,,SKC,0.00,0.00,VWS V14.01,2013-05-27 02:38:00,
2013-05-26 22:39:00,59.7,42.1,30.21,NW,315,0.0,2.0,52,0.00,,SKC,0.00,0.00,VWS V14.01,2013-05-27 02:39:00,
2013-05-26 22:41:00,59.6,42.0,30.21,NW,315,0.0,2.0,52,0.00,,SKC,0.00,0.00,VWS V14.01,2013-05-27 02:41:00,
2013-05-26 22:42:00,59.6,42.0,30.21,NW,315,0.0,2.0,52,0.00,,SKC,0.00,0.00,VWS V14.01,2013-05-27 02:42:00,
2013-05-26 22:43:00,59.6,41.0,30.21,NW,315,1.0,2.0,50,0.00,,SKC,0.00,0.00,VWS V14.01,2013-05-27 02:43:00,
2013-05-26 22:44:00,59.6,38.2,30.21,NW,315,0.0,2.0,45,0.00,,SKC,0.00,0.00,VWS V14.01,2013-05-27 02:44:00,
2013-05-26 22:46:00,59.6,41.0,30.21,NW,315,2.0,2.0,50,0.00,,SKC,0.00,0.00,VWS V14.01,2013-05-27 02:46:00,
2013-05-26 22:47:00,59.6,39.9,30.21,NW,315,0.0,2.0,48,0.00,,SKC,0.00,0.00,VWS V14.01,2013-05-27 02:47:00,
2013-05-26 22:48:00,59.5,38.2,30.21,NW,315,0.0,2.0,45,0.00,,SKC,0.00,0.00,VWS V14.01,2013-05-27 02:48:00,
2013-05-26 22:49:00,59.5,38.7,30.21,NW,315,1.0,2.0,46,0.00,,SKC,0.00,0.00,VWS V14.01,2013-05-27 02:49:00,
2013-05-26 22:51:00,59.4,38.6,30.21,NW,315,1.0,2.0,46,0.00,,SKC,0.00,0.00,VWS V14.01,2013-05-27 02:51:00,
2013-05-26 22:52:00,59.4,38.1,30.21,NW,315,1.0,3.0,45,0.00,,SKC,0.00,0.00,VWS V14.01,2013-05-27 02:52:00,
2013-05-26 22:53:00,59.4,38.6,30.21,NW,315,2.0,3.0,46,0.00,,SKC,0.00,0.00,VWS V14.01,2013-05-27 02:53:00,
2013-05-26 22:54:00,59.3,38.5,30.21,NW,315,1.0,3.0,46,0.00,,SKC,0.00,0.00,VWS V14.01,2013-05-27 02:54:00,
2013-05-26 22:56:00,59.2,39.0,30.21,NW,315,0.0,3.0,47,0.00,,SKC,0.00,0.00,VWS V14.01,2013-05-27 02:56:00,
2013-05-26 22:57:00,59.1,38.9,30.21,NW,315,0.0,3.0,47,0.00,,SKC,0.00,0.00,VWS V14.01,2013-05-27 02:57:00,
2013-05-26 22:58:00,59.0,39.4,30.21,NW,315,0.0,3.0,48,0.00,,SKC,0.00,0.00,VWS V14.01,2013-05-27 02:58:00,
2013-05-26 22:59:00,58.9,39.3,30.21,NW,315,0.0,3.0,48,0.00,,SKC,0.00,0.00,VWS V14.01,2013-05-27 02:59:00,
2013-05-26 23:00:00,58.7,39.6,30.21,NW,315,2.0,3.0,49,0.00,,SKC,0.00,0.00,VWS V14.01,2013-05-27 03:00:00,
2013-05-26 23:02:00,58.4,37.7,30.21,NW,315,1.0,3.0,46,0.00,,SKC,0.00,0.00,VWS V14.01,2013-05-27 03:02:00,
2013-05-26 23:03:00,58.4,37.2,30.21,NW,315,0.0,3.0,45,0.00,,SKC,0.00,0.00,VWS V14.01,2013-05-27 03:03:00,
2013-05-26 23:04:00,58.5,37.2,30.21,NW,315,1.0,3.0,45,0.00,,SKC,0.00,0.00,VWS V14.01,2013-05-27 03:04:00,
2013-05-26 23:05:00,58.6,37.9,30.21,NW,315,2.0,3.0,46,0.00,,SKC,0.00,0.00,VWS V14.01,2013-05-27 03:05:00,
2013-05-26 23:07:00,58.9,37.0,30.21,NW,315,2.0,3.0,44,0.00,,SKC,0.00,0.00,VWS V14.01,2013-05-27 03:07:00,
2013-05-26 23:08:00,59.1,37.2,30.21,NW,315,1.0,3.0,44,0.00,,SKC,0.00,0.00,VWS V14.01,2013-05-27 03:08:00,
2013-05-26 23:09:00,59.3,36.2,30.21,NW,313,2.0,3.0,42,0.00,,SKC,0.00,0.00,VWS V14.01,2013-05-27 03:09:00,
2013-05-26 23:10:00,59.6,37.1,30.21,NW,313,2.0,3.0,43,0.00,,SKC,0.00,0.00,VWS V14.01,2013-05-27 03:10:00,
2013-05-26 23:12:00,60.0,36.9,30.21,West,275,2.0,4.0,42,0.00,,SKC,0.00,0.00,VWS V14.01,2013-05-27 03:12:00,
2013-05-26 23:13:00,60.5,36.7,30.21,West,275,1.0,4.0,41,0.00,,SKC,0.00,0.00,VWS V14.01,2013-05-27 03:13:00,
2013-05-26 23:14:00,60.6,36.8,30.21,West,275,1.0,4.0,41,0.00,,SKC,0.00,0.00,VWS V14.01,2013-05-27 03:14:00,
2013-05-26 23:15:00,60.8,38.2,30.21,SW,216,5.0,5.0,43,0.00,,SKC,0.00,0.00,VWS V14.01,2013-05-27 03:15:00,
2013-05-26 23:18:00,61.2,37.3,30.22,SSW,212,2.0,5.0,41,0.00,,SKC,0.00,0.00,VWS V14.01,2013-05-27 03:18:00,
2013-05-26 23:19:00,61.2,37.3,30.22,SSW,212,0.0,5.0,41,0.00,,SKC,0.00,0.00,VWS V14.01,2013-05-27 03:19:00,
2013-05-26 23:20:00,61.2,38.0,30.22,SSW,212,0.0,5.0,42,0.00,,SKC,0.00,0.00,VWS V14.01,2013-05-27 03:20:00,
2013-05-26 23:23:00,60.8,37.0,30.22,SSW,212,0.0,5.0,41,0.00,,SKC,0.00,0.00,VWS V14.01,2013-05-27 03:23:00,
2013-05-26 23:24:00,60.7,36.9,30.22,SSW,212,1.0,5.0,41,0.00,,SKC,0.00,0.00,VWS V14.01,2013-05-27 03:24:00,
2013-05-26 23:25:00,60.5,37.3,30.22,SSW,212,0.0,5.0,42,0.00,,SKC,0.00,0.00,VWS V14.01,2013-05-27 03:25:00,
2013-05-26 23:28:00,60.3,36.5,30.22,SSW,212,0.0,5.0,41,0.00,,SKC,0.00,0.00,VWS V14.01,2013-05-27 03:28:00,
2013-05-26 23:29:00,60.3,36.5,30.22,SSW,212,0.0,5.0,41,0.00,,SKC,0.00,0.00,VWS V14.01,2013-05-27 03:29:00,
2013-05-26 23:30:00,60.3,37.1,30.22,SSW,212,0.0,5.0,42,0.00,,SKC,0.00,0.00,VWS V14.01,2013-05-27 03:30:00,
2013-05-26 23:33:00,60.2,36.4,30.22,SSW,212,0.0,0.0,41,0.00,,SKC,0.00,0.00,VWS V14.01,2013-05-27 03:33:00,
2013-05-26 23:34:00,60.2,36.4,30.22,SSW,212,0.0,0.0,41,0.00,,SKC,0.00,0.00,VWS V14.01,2013-05-27 03:34:00,
2013-05-26 23:35:00,60.2,37.6,30.22,SSW,212,0.0,0.0,43,0.00,,SKC,0.00,0.00,VWS V14.01,2013-05-27 03:35:00,
2013-05-26 23:36:00,60.1,38.7,30.22,SSW,212,0.0,0.0,45,0.00,,SKC,0.00,0.00,VWS V14.01,2013-05-27 03:36:00,
2013-05-26 23:38:00,59.8,37.9,30.21,SSW,212,0.0,3.0,44,0.00,,SKC,0.00,0.00,VWS V14.01,2013-05-27 03:38:00,
2013-05-26 23:39:00,59.7,37.8,30.21,SSW,212,0.0,3.0,44,0.00,,SKC,0.00,0.00,VWS V14.01,2013-05-27 03:39:00,
2013-05-26 23:41:00,59.4,37.5,30.21,SSW,212,1.0,3.0,44,0.00,,SKC,0.00,0.00,VWS V14.01,2013-05-27 03:41:00,
2013-05-26 23:44:00,59.0,36.6,30.21,SSW,212,1.0,3.0,43,0.00,,SKC,0.00,0.00,VWS V14.01,2013-05-27 03:44:00,
2013-05-26 23:46:00,59.2,36.1,30.21,SW,222,0.0,3.0,42,0.00,,SKC,0.00,0.00,VWS V14.01,2013-05-27 03:46:00,
2013-05-26 23:47:00,59.3,36.2,30.22,WSW,247,3.0,3.0,42,0.00,,SKC,0.00,0.00,VWS V14.01,2013-05-27 03:47:00,
2013-05-26 23:49:00,59.9,36.2,30.22,West,274,0.0,3.0,41,0.00,,SKC,0.00,0.00,VWS V14.01,2013-05-27 03:49:00,
2013-05-26 23:52:00,60.4,37.8,30.22,West,274,0.0,3.0,43,0.00,,SKC,0.00,0.00,VWS V14.01,2013-05-27 03:52:00,
2013-05-26 23:54:00,60.4,40.1,30.22,West,274,0.0,3.0,47,0.00,,SKC,0.00,0.00,VWS V14.01,2013-05-27 03:54:00,
2013-05-26 23:55:00,60.4,37.8,30.22,West,274,1.0,3.0,43,0.00,,SKC,0.00,0.00,VWS V14.01,2013-05-27 03:55:00,
2013-05-26 23:57:00,60.0,39.2,30.22,West,261,0.0,3.0,46,0.00,,SKC,0.00,0.00,VWS V14.01,2013-05-27 03:57:00,
2013-05-26 23:58:00,59.8,40.1,30.22,West,261,1.0,3.0,48,0.00,,SKC,0.00,0.00,VWS V14.01,2013-05-27 03:58:00,
2013-05-26 23:59:00,59.3,39.1,30.22,West,261,0.0,3.0,47,0.00,,SKC,0.00,0.00,VWS V14.01,2013-05-27 03:59:00,